<?xml version="1.0" encoding="UTF-8" standalone="no" ?>
<gpx xmlns="http://www.topografix.com/GPX/1/1" xmlns:xsi="http://www.w3.org/2001/XMLSchema-instance" xsi:schemaLocation="http://www.topografix.com/GPX/1/1 http://www.topografix.com/GPX/1/1/gpx.xsd" version="1.1" creator="VisuGPX - https://www.visugpx.com">
  <metadata>
    <name>Albane</name>
  </metadata>
  <trk>
    <name><![CDATA[Albane]]></name>
    <trkseg>
      <trkpt lat="45.20739" lon="6.42065">
        <ele>1673</ele>
        <time>2023-02-25T08:18:45.108Z</time>
      </trkpt>
      <trkpt lat="45.20739" lon="6.42065">
        <ele>1673</ele>
        <time>2023-02-25T08:18:46.017Z</time>
      </trkpt>
      <trkpt lat="45.20739" lon="6.42065">
        <ele>1673</ele>
        <time>2023-02-25T08:18:52.039Z</time>
      </trkpt>
      <trkpt lat="45.20739" lon="6.42065">
        <ele>1673</ele>
        <time>2023-02-25T08:20:28.996Z</time>
      </trkpt>
      <trkpt lat="45.20719" lon="6.42049">
        <ele>1675</ele>
        <time>2023-02-25T08:20:29.998Z</time>
      </trkpt>
      <trkpt lat="45.20709" lon="6.42047">
        <ele>1675</ele>
        <time>2023-02-25T08:20:38.989Z</time>
      </trkpt>
      <trkpt lat="45.20699" lon="6.42045">
        <ele>1676</ele>
        <time>2023-02-25T08:20:47.024Z</time>
      </trkpt>
      <trkpt lat="45.20689" lon="6.42043">
        <ele>1677</ele>
        <time>2023-02-25T08:20:56.011Z</time>
      </trkpt>
      <trkpt lat="45.20681" lon="6.42038">
        <ele>1678</ele>
        <time>2023-02-25T08:21:04.995Z</time>
      </trkpt>
      <trkpt lat="45.20671" lon="6.42034">
        <ele>1678</ele>
        <time>2023-02-25T08:21:13.019Z</time>
      </trkpt>
      <trkpt lat="45.20663" lon="6.42028">
        <ele>1678</ele>
        <time>2023-02-25T08:21:23.021Z</time>
      </trkpt>
      <trkpt lat="45.20656" lon="6.42019">
        <ele>1679</ele>
        <time>2023-02-25T08:21:31.017Z</time>
      </trkpt>
      <trkpt lat="45.20651" lon="6.42008">
        <ele>1679</ele>
        <time>2023-02-25T08:21:38.991Z</time>
      </trkpt>
      <trkpt lat="45.20644" lon="6.42">
        <ele>1679</ele>
        <time>2023-02-25T08:21:47.010Z</time>
      </trkpt>
      <trkpt lat="45.20635" lon="6.41992">
        <ele>1679</ele>
        <time>2023-02-25T08:21:53.009Z</time>
      </trkpt>
      <trkpt lat="45.20627" lon="6.41985">
        <ele>1679</ele>
        <time>2023-02-25T08:22:01.004Z</time>
      </trkpt>
      <trkpt lat="45.2062" lon="6.41974">
        <ele>1679</ele>
        <time>2023-02-25T08:22:08.995Z</time>
      </trkpt>
      <trkpt lat="45.20614" lon="6.41964">
        <ele>1678</ele>
        <time>2023-02-25T08:22:16.988Z</time>
      </trkpt>
      <trkpt lat="45.20607" lon="6.41955">
        <ele>1677</ele>
        <time>2023-02-25T08:22:25.999Z</time>
      </trkpt>
      <trkpt lat="45.206" lon="6.41947">
        <ele>1677</ele>
        <time>2023-02-25T08:22:37.009Z</time>
      </trkpt>
      <trkpt lat="45.20592" lon="6.41939">
        <ele>1677</ele>
        <time>2023-02-25T08:22:45.997Z</time>
      </trkpt>
      <trkpt lat="45.20587" lon="6.41928">
        <ele>1677</ele>
        <time>2023-02-25T08:22:57.004Z</time>
      </trkpt>
      <trkpt lat="45.2058" lon="6.41919">
        <ele>1676</ele>
        <time>2023-02-25T08:23:04.991Z</time>
      </trkpt>
      <trkpt lat="45.20572" lon="6.4191">
        <ele>1675</ele>
        <time>2023-02-25T08:23:14.989Z</time>
      </trkpt>
      <trkpt lat="45.2057" lon="6.41898">
        <ele>1673</ele>
        <time>2023-02-25T08:23:32.002Z</time>
      </trkpt>
      <trkpt lat="45.2057" lon="6.41884">
        <ele>1673</ele>
        <time>2023-02-25T08:23:42.987Z</time>
      </trkpt>
      <trkpt lat="45.20569" lon="6.41881">
        <ele>1674</ele>
        <time>2023-02-25T08:23:58.988Z</time>
      </trkpt>
      <trkpt lat="45.20569" lon="6.41881">
        <ele>1674</ele>
        <time>2023-02-25T08:26:10.002Z</time>
      </trkpt>
      <trkpt lat="45.20566" lon="6.41848">
        <ele>1672</ele>
        <time>2023-02-25T08:26:11.003Z</time>
      </trkpt>
      <trkpt lat="45.20564" lon="6.41836">
        <ele>1674</ele>
        <time>2023-02-25T08:26:26.025Z</time>
      </trkpt>
      <trkpt lat="45.20557" lon="6.41825">
        <ele>1676</ele>
        <time>2023-02-25T08:26:37.027Z</time>
      </trkpt>
      <trkpt lat="45.20552" lon="6.41814">
        <ele>1678</ele>
        <time>2023-02-25T08:26:48.018Z</time>
      </trkpt>
      <trkpt lat="45.20546" lon="6.41803">
        <ele>1680</ele>
        <time>2023-02-25T08:27:04.008Z</time>
      </trkpt>
      <trkpt lat="45.20541" lon="6.41792">
        <ele>1682</ele>
        <time>2023-02-25T08:27:18.993Z</time>
      </trkpt>
      <trkpt lat="45.20536" lon="6.4178">
        <ele>1685</ele>
        <time>2023-02-25T08:27:32.997Z</time>
      </trkpt>
      <trkpt lat="45.20531" lon="6.4177">
        <ele>1689</ele>
        <time>2023-02-25T08:27:47.009Z</time>
      </trkpt>
      <trkpt lat="45.20523" lon="6.41761">
        <ele>1692</ele>
        <time>2023-02-25T08:28:04.004Z</time>
      </trkpt>
      <trkpt lat="45.20519" lon="6.41749">
        <ele>1695</ele>
        <time>2023-02-25T08:28:20.016Z</time>
      </trkpt>
      <trkpt lat="45.20513" lon="6.41739">
        <ele>1697</ele>
        <time>2023-02-25T08:28:35.002Z</time>
      </trkpt>
      <trkpt lat="45.20508" lon="6.41728">
        <ele>1700</ele>
        <time>2023-02-25T08:28:56.970Z</time>
      </trkpt>
      <trkpt lat="45.20501" lon="6.41719">
        <ele>1702</ele>
        <time>2023-02-25T08:29:14.028Z</time>
      </trkpt>
      <trkpt lat="45.20495" lon="6.4171">
        <ele>1705</ele>
        <time>2023-02-25T08:29:28.004Z</time>
      </trkpt>
      <trkpt lat="45.20488" lon="6.417">
        <ele>1708</ele>
        <time>2023-02-25T08:29:49.022Z</time>
      </trkpt>
      <trkpt lat="45.20479" lon="6.41698">
        <ele>1711</ele>
        <time>2023-02-25T08:30:11.995Z</time>
      </trkpt>
      <trkpt lat="45.20482" lon="6.41685">
        <ele>1713</ele>
        <time>2023-02-25T08:30:28.011Z</time>
      </trkpt>
      <trkpt lat="45.20478" lon="6.41674">
        <ele>1716</ele>
        <time>2023-02-25T08:30:48.005Z</time>
      </trkpt>
      <trkpt lat="45.20483" lon="6.41663">
        <ele>1719</ele>
        <time>2023-02-25T08:31:08.005Z</time>
      </trkpt>
      <trkpt lat="45.2049" lon="6.41653">
        <ele>1722</ele>
        <time>2023-02-25T08:31:21.018Z</time>
      </trkpt>
      <trkpt lat="45.20493" lon="6.41642">
        <ele>1726</ele>
        <time>2023-02-25T08:31:46.992Z</time>
      </trkpt>
      <trkpt lat="45.20493" lon="6.41639">
        <ele>1727</ele>
        <time>2023-02-25T08:31:52.002Z</time>
      </trkpt>
      <trkpt lat="45.20493" lon="6.41639">
        <ele>1727</ele>
        <time>2023-02-25T08:32:40.000Z</time>
      </trkpt>
      <trkpt lat="45.20487" lon="6.41607">
        <ele>1733</ele>
        <time>2023-02-25T08:32:41.014Z</time>
      </trkpt>
      <trkpt lat="45.20487" lon="6.41593">
        <ele>1735</ele>
        <time>2023-02-25T08:32:53.023Z</time>
      </trkpt>
      <trkpt lat="45.2049" lon="6.41581">
        <ele>1740</ele>
        <time>2023-02-25T08:33:16.002Z</time>
      </trkpt>
      <trkpt lat="45.20495" lon="6.4157">
        <ele>1743</ele>
        <time>2023-02-25T08:33:27.008Z</time>
      </trkpt>
      <trkpt lat="45.20495" lon="6.41557">
        <ele>1748</ele>
        <time>2023-02-25T08:33:44.984Z</time>
      </trkpt>
      <trkpt lat="45.20497" lon="6.41543">
        <ele>1750</ele>
        <time>2023-02-25T08:33:56.996Z</time>
      </trkpt>
      <trkpt lat="45.20498" lon="6.4153">
        <ele>1752</ele>
        <time>2023-02-25T08:34:08.987Z</time>
      </trkpt>
      <trkpt lat="45.20495" lon="6.41517">
        <ele>1753</ele>
        <time>2023-02-25T08:34:26.013Z</time>
      </trkpt>
      <trkpt lat="45.205" lon="6.41506">
        <ele>1755</ele>
        <time>2023-02-25T08:34:47.008Z</time>
      </trkpt>
      <trkpt lat="45.205" lon="6.41493">
        <ele>1758</ele>
        <time>2023-02-25T08:34:58.999Z</time>
      </trkpt>
      <trkpt lat="45.20496" lon="6.41481">
        <ele>1762</ele>
        <time>2023-02-25T08:35:17.978Z</time>
      </trkpt>
      <trkpt lat="45.20496" lon="6.41474">
        <ele>1767</ele>
        <time>2023-02-25T08:35:41.014Z</time>
      </trkpt>
      <trkpt lat="45.20496" lon="6.41474">
        <ele>1767</ele>
        <time>2023-02-25T08:36:20.981Z</time>
      </trkpt>
      <trkpt lat="45.20517" lon="6.41462">
        <ele>1774</ele>
        <time>2023-02-25T08:36:21.969Z</time>
      </trkpt>
      <trkpt lat="45.20519" lon="6.41451">
        <ele>1777</ele>
        <time>2023-02-25T08:36:49.972Z</time>
      </trkpt>
      <trkpt lat="45.20519" lon="6.41451">
        <ele>1777</ele>
        <time>2023-02-25T08:37:47.005Z</time>
      </trkpt>
      <trkpt lat="45.20512" lon="6.4142">
        <ele>1783</ele>
        <time>2023-02-25T08:37:47.987Z</time>
      </trkpt>
      <trkpt lat="45.20507" lon="6.41409">
        <ele>1791</ele>
        <time>2023-02-25T08:38:26.981Z</time>
      </trkpt>
      <trkpt lat="45.20507" lon="6.41408">
        <ele>1791</ele>
        <time>2023-02-25T08:38:27.991Z</time>
      </trkpt>
      <trkpt lat="45.20507" lon="6.41408">
        <ele>1791</ele>
        <time>2023-02-25T08:40:23.976Z</time>
      </trkpt>
      <trkpt lat="45.20505" lon="6.41376">
        <ele>1800</ele>
        <time>2023-02-25T08:40:24.977Z</time>
      </trkpt>
      <trkpt lat="45.20497" lon="6.4137">
        <ele>1800</ele>
        <time>2023-02-25T08:40:40.016Z</time>
      </trkpt>
      <trkpt lat="45.20493" lon="6.41367">
        <ele>1800</ele>
        <time>2023-02-25T08:40:56.016Z</time>
      </trkpt>
      <trkpt lat="45.20493" lon="6.41367">
        <ele>1800</ele>
        <time>2023-02-25T08:44:17.015Z</time>
      </trkpt>
      <trkpt lat="45.20469" lon="6.41357">
        <ele>1824</ele>
        <time>2023-02-25T08:44:18.025Z</time>
      </trkpt>
      <trkpt lat="45.20461" lon="6.4135">
        <ele>1825</ele>
        <time>2023-02-25T08:44:32.009Z</time>
      </trkpt>
      <trkpt lat="45.20454" lon="6.41339">
        <ele>1826</ele>
        <time>2023-02-25T08:44:43.032Z</time>
      </trkpt>
      <trkpt lat="45.20445" lon="6.41335">
        <ele>1827</ele>
        <time>2023-02-25T08:44:56.010Z</time>
      </trkpt>
      <trkpt lat="45.20437" lon="6.41329">
        <ele>1829</ele>
        <time>2023-02-25T08:45:04.998Z</time>
      </trkpt>
      <trkpt lat="45.20428" lon="6.41324">
        <ele>1831</ele>
        <time>2023-02-25T08:45:15.008Z</time>
      </trkpt>
      <trkpt lat="45.2042" lon="6.41318">
        <ele>1833</ele>
        <time>2023-02-25T08:45:25.012Z</time>
      </trkpt>
      <trkpt lat="45.20412" lon="6.4131">
        <ele>1834</ele>
        <time>2023-02-25T08:45:33.996Z</time>
      </trkpt>
      <trkpt lat="45.20405" lon="6.41303">
        <ele>1835</ele>
        <time>2023-02-25T08:45:42.028Z</time>
      </trkpt>
      <trkpt lat="45.20396" lon="6.41298">
        <ele>1835</ele>
        <time>2023-02-25T08:45:51.004Z</time>
      </trkpt>
      <trkpt lat="45.20388" lon="6.4129">
        <ele>1835</ele>
        <time>2023-02-25T08:45:59.061Z</time>
      </trkpt>
      <trkpt lat="45.2038" lon="6.41285">
        <ele>1834</ele>
        <time>2023-02-25T08:46:08.991Z</time>
      </trkpt>
      <trkpt lat="45.20373" lon="6.41275">
        <ele>1832</ele>
        <time>2023-02-25T08:46:17.997Z</time>
      </trkpt>
      <trkpt lat="45.20366" lon="6.41268">
        <ele>1831</ele>
        <time>2023-02-25T08:46:28.989Z</time>
      </trkpt>
      <trkpt lat="45.20359" lon="6.41257">
        <ele>1830</ele>
        <time>2023-02-25T08:46:40.000Z</time>
      </trkpt>
      <trkpt lat="45.20354" lon="6.41246">
        <ele>1829</ele>
        <time>2023-02-25T08:46:49.019Z</time>
      </trkpt>
      <trkpt lat="45.20349" lon="6.41235">
        <ele>1830</ele>
        <time>2023-02-25T08:46:59.011Z</time>
      </trkpt>
      <trkpt lat="45.20344" lon="6.41223">
        <ele>1831</ele>
        <time>2023-02-25T08:47:09.018Z</time>
      </trkpt>
      <trkpt lat="45.20338" lon="6.41212">
        <ele>1833</ele>
        <time>2023-02-25T08:47:19.996Z</time>
      </trkpt>
      <trkpt lat="45.2033" lon="6.41203">
        <ele>1834</ele>
        <time>2023-02-25T08:47:27.948Z</time>
      </trkpt>
      <trkpt lat="45.20322" lon="6.41198">
        <ele>1837</ele>
        <time>2023-02-25T08:47:41.959Z</time>
      </trkpt>
      <trkpt lat="45.20313" lon="6.41199">
        <ele>1841</ele>
        <time>2023-02-25T08:48:04.011Z</time>
      </trkpt>
      <trkpt lat="45.20313" lon="6.41199">
        <ele>1841</ele>
        <time>2023-02-25T08:48:28.991Z</time>
      </trkpt>
      <trkpt lat="45.20291" lon="6.4119">
        <ele>1847</ele>
        <time>2023-02-25T08:48:29.991Z</time>
      </trkpt>
      <trkpt lat="45.20282" lon="6.41187">
        <ele>1849</ele>
        <time>2023-02-25T08:48:40.981Z</time>
      </trkpt>
      <trkpt lat="45.20274" lon="6.41182">
        <ele>1849</ele>
        <time>2023-02-25T08:48:51.020Z</time>
      </trkpt>
      <trkpt lat="45.20264" lon="6.41178">
        <ele>1848</ele>
        <time>2023-02-25T08:49:02.981Z</time>
      </trkpt>
      <trkpt lat="45.20256" lon="6.41172">
        <ele>1846</ele>
        <time>2023-02-25T08:49:12.996Z</time>
      </trkpt>
      <trkpt lat="45.20248" lon="6.41165">
        <ele>1843</ele>
        <time>2023-02-25T08:49:23.999Z</time>
      </trkpt>
      <trkpt lat="45.2024" lon="6.41157">
        <ele>1840</ele>
        <time>2023-02-25T08:49:34.983Z</time>
      </trkpt>
      <trkpt lat="45.20233" lon="6.4115">
        <ele>1839</ele>
        <time>2023-02-25T08:49:46.999Z</time>
      </trkpt>
      <trkpt lat="45.20224" lon="6.41143">
        <ele>1838</ele>
        <time>2023-02-25T08:49:58.989Z</time>
      </trkpt>
      <trkpt lat="45.20217" lon="6.41136">
        <ele>1838</ele>
        <time>2023-02-25T08:50:09.997Z</time>
      </trkpt>
      <trkpt lat="45.20208" lon="6.41133">
        <ele>1839</ele>
        <time>2023-02-25T08:50:19.986Z</time>
      </trkpt>
      <trkpt lat="45.20199" lon="6.41131">
        <ele>1841</ele>
        <time>2023-02-25T08:50:29.026Z</time>
      </trkpt>
      <trkpt lat="45.2019" lon="6.41126">
        <ele>1844</ele>
        <time>2023-02-25T08:50:38.006Z</time>
      </trkpt>
      <trkpt lat="45.20181" lon="6.41125">
        <ele>1848</ele>
        <time>2023-02-25T08:50:47.020Z</time>
      </trkpt>
      <trkpt lat="45.20172" lon="6.41125">
        <ele>1850</ele>
        <time>2023-02-25T08:50:53.996Z</time>
      </trkpt>
      <trkpt lat="45.20161" lon="6.41123">
        <ele>1853</ele>
        <time>2023-02-25T08:51:00.990Z</time>
      </trkpt>
      <trkpt lat="45.20153" lon="6.41121">
        <ele>1855</ele>
        <time>2023-02-25T08:51:09.022Z</time>
      </trkpt>
      <trkpt lat="45.20144" lon="6.41119">
        <ele>1857</ele>
        <time>2023-02-25T08:51:16.004Z</time>
      </trkpt>
      <trkpt lat="45.20134" lon="6.41113">
        <ele>1859</ele>
        <time>2023-02-25T08:51:23.992Z</time>
      </trkpt>
      <trkpt lat="45.20125" lon="6.41111">
        <ele>1861</ele>
        <time>2023-02-25T08:51:34.008Z</time>
      </trkpt>
      <trkpt lat="45.20116" lon="6.41108">
        <ele>1862</ele>
        <time>2023-02-25T08:51:44.015Z</time>
      </trkpt>
      <trkpt lat="45.20107" lon="6.41103">
        <ele>1863</ele>
        <time>2023-02-25T08:51:51.997Z</time>
      </trkpt>
      <trkpt lat="45.20097" lon="6.41102">
        <ele>1865</ele>
        <time>2023-02-25T08:51:59.997Z</time>
      </trkpt>
      <trkpt lat="45.20088" lon="6.41102">
        <ele>1866</ele>
        <time>2023-02-25T08:52:08.000Z</time>
      </trkpt>
      <trkpt lat="45.20078" lon="6.41101">
        <ele>1869</ele>
        <time>2023-02-25T08:52:16.002Z</time>
      </trkpt>
      <trkpt lat="45.20069" lon="6.41103">
        <ele>1871</ele>
        <time>2023-02-25T08:52:23.003Z</time>
      </trkpt>
      <trkpt lat="45.20059" lon="6.41105">
        <ele>1873</ele>
        <time>2023-02-25T08:52:30.006Z</time>
      </trkpt>
      <trkpt lat="45.2005" lon="6.41106">
        <ele>1875</ele>
        <time>2023-02-25T08:52:38.995Z</time>
      </trkpt>
      <trkpt lat="45.20041" lon="6.41111">
        <ele>1877</ele>
        <time>2023-02-25T08:52:45.979Z</time>
      </trkpt>
      <trkpt lat="45.20034" lon="6.41119">
        <ele>1879</ele>
        <time>2023-02-25T08:52:53.018Z</time>
      </trkpt>
      <trkpt lat="45.20027" lon="6.41127">
        <ele>1881</ele>
        <time>2023-02-25T08:52:59.989Z</time>
      </trkpt>
      <trkpt lat="45.20018" lon="6.41135">
        <ele>1882</ele>
        <time>2023-02-25T08:53:09.002Z</time>
      </trkpt>
      <trkpt lat="45.2001" lon="6.41144">
        <ele>1883</ele>
        <time>2023-02-25T08:53:16.997Z</time>
      </trkpt>
      <trkpt lat="45.20004" lon="6.41155">
        <ele>1883</ele>
        <time>2023-02-25T08:53:26.008Z</time>
      </trkpt>
      <trkpt lat="45.19998" lon="6.41166">
        <ele>1882</ele>
        <time>2023-02-25T08:53:37.003Z</time>
      </trkpt>
      <trkpt lat="45.19989" lon="6.4117">
        <ele>1881</ele>
        <time>2023-02-25T08:53:46.998Z</time>
      </trkpt>
      <trkpt lat="45.19981" lon="6.41162">
        <ele>1878</ele>
        <time>2023-02-25T08:54:00.013Z</time>
      </trkpt>
      <trkpt lat="45.19973" lon="6.41155">
        <ele>1875</ele>
        <time>2023-02-25T08:54:09.992Z</time>
      </trkpt>
      <trkpt lat="45.19968" lon="6.41144">
        <ele>1872</ele>
        <time>2023-02-25T08:54:22.007Z</time>
      </trkpt>
      <trkpt lat="45.1996" lon="6.41136">
        <ele>1869</ele>
        <time>2023-02-25T08:54:34.010Z</time>
      </trkpt>
      <trkpt lat="45.19953" lon="6.41128">
        <ele>1867</ele>
        <time>2023-02-25T08:54:43.977Z</time>
      </trkpt>
      <trkpt lat="45.19945" lon="6.41121">
        <ele>1866</ele>
        <time>2023-02-25T08:54:55.029Z</time>
      </trkpt>
      <trkpt lat="45.19935" lon="6.41118">
        <ele>1864</ele>
        <time>2023-02-25T08:55:05.985Z</time>
      </trkpt>
      <trkpt lat="45.19926" lon="6.41116">
        <ele>1863</ele>
        <time>2023-02-25T08:55:17.015Z</time>
      </trkpt>
      <trkpt lat="45.19917" lon="6.41111">
        <ele>1861</ele>
        <time>2023-02-25T08:55:31.004Z</time>
      </trkpt>
      <trkpt lat="45.19911" lon="6.41102">
        <ele>1860</ele>
        <time>2023-02-25T08:55:42.018Z</time>
      </trkpt>
      <trkpt lat="45.19903" lon="6.41094">
        <ele>1859</ele>
        <time>2023-02-25T08:55:51.018Z</time>
      </trkpt>
      <trkpt lat="45.19894" lon="6.41089">
        <ele>1858</ele>
        <time>2023-02-25T08:56:01.001Z</time>
      </trkpt>
      <trkpt lat="45.19887" lon="6.4108">
        <ele>1858</ele>
        <time>2023-02-25T08:56:10.036Z</time>
      </trkpt>
      <trkpt lat="45.1988" lon="6.41072">
        <ele>1859</ele>
        <time>2023-02-25T08:56:18.980Z</time>
      </trkpt>
      <trkpt lat="45.19873" lon="6.41063">
        <ele>1861</ele>
        <time>2023-02-25T08:56:29.011Z</time>
      </trkpt>
      <trkpt lat="45.19866" lon="6.41055">
        <ele>1862</ele>
        <time>2023-02-25T08:56:38.010Z</time>
      </trkpt>
      <trkpt lat="45.1986" lon="6.41043">
        <ele>1865</ele>
        <time>2023-02-25T08:56:47.996Z</time>
      </trkpt>
      <trkpt lat="45.19857" lon="6.4103">
        <ele>1866</ele>
        <time>2023-02-25T08:56:55.993Z</time>
      </trkpt>
      <trkpt lat="45.19852" lon="6.41019">
        <ele>1868</ele>
        <time>2023-02-25T08:57:05.030Z</time>
      </trkpt>
      <trkpt lat="45.19846" lon="6.41007">
        <ele>1869</ele>
        <time>2023-02-25T08:57:14.996Z</time>
      </trkpt>
      <trkpt lat="45.19838" lon="6.40999">
        <ele>1870</ele>
        <time>2023-02-25T08:57:22.020Z</time>
      </trkpt>
      <trkpt lat="45.19831" lon="6.40992">
        <ele>1870</ele>
        <time>2023-02-25T08:57:30.025Z</time>
      </trkpt>
      <trkpt lat="45.19822" lon="6.40988">
        <ele>1870</ele>
        <time>2023-02-25T08:57:37.003Z</time>
      </trkpt>
      <trkpt lat="45.19814" lon="6.4098">
        <ele>1870</ele>
        <time>2023-02-25T08:57:44.972Z</time>
      </trkpt>
      <trkpt lat="45.19806" lon="6.40974">
        <ele>1870</ele>
        <time>2023-02-25T08:57:52.005Z</time>
      </trkpt>
      <trkpt lat="45.19799" lon="6.40966">
        <ele>1870</ele>
        <time>2023-02-25T08:58:00.014Z</time>
      </trkpt>
      <trkpt lat="45.19791" lon="6.40959">
        <ele>1870</ele>
        <time>2023-02-25T08:58:07.991Z</time>
      </trkpt>
      <trkpt lat="45.19784" lon="6.40949">
        <ele>1871</ele>
        <time>2023-02-25T08:58:17.008Z</time>
      </trkpt>
      <trkpt lat="45.19778" lon="6.40939">
        <ele>1871</ele>
        <time>2023-02-25T08:58:25.011Z</time>
      </trkpt>
      <trkpt lat="45.19778" lon="6.40926">
        <ele>1871</ele>
        <time>2023-02-25T08:58:33.022Z</time>
      </trkpt>
      <trkpt lat="45.19774" lon="6.40913">
        <ele>1871</ele>
        <time>2023-02-25T08:58:41.991Z</time>
      </trkpt>
      <trkpt lat="45.19767" lon="6.40903">
        <ele>1871</ele>
        <time>2023-02-25T08:58:50.045Z</time>
      </trkpt>
      <trkpt lat="45.19762" lon="6.40892">
        <ele>1871</ele>
        <time>2023-02-25T08:58:58.035Z</time>
      </trkpt>
      <trkpt lat="45.19758" lon="6.40879">
        <ele>1871</ele>
        <time>2023-02-25T08:59:06.030Z</time>
      </trkpt>
      <trkpt lat="45.19753" lon="6.40868">
        <ele>1872</ele>
        <time>2023-02-25T08:59:13.018Z</time>
      </trkpt>
      <trkpt lat="45.19748" lon="6.40857">
        <ele>1872</ele>
        <time>2023-02-25T08:59:20.017Z</time>
      </trkpt>
      <trkpt lat="45.19744" lon="6.40845">
        <ele>1873</ele>
        <time>2023-02-25T08:59:29.013Z</time>
      </trkpt>
      <trkpt lat="45.19738" lon="6.40833">
        <ele>1874</ele>
        <time>2023-02-25T08:59:37.019Z</time>
      </trkpt>
      <trkpt lat="45.19733" lon="6.40823">
        <ele>1875</ele>
        <time>2023-02-25T08:59:45.007Z</time>
      </trkpt>
      <trkpt lat="45.19731" lon="6.40809">
        <ele>1876</ele>
        <time>2023-02-25T08:59:55.017Z</time>
      </trkpt>
      <trkpt lat="45.19731" lon="6.40796">
        <ele>1877</ele>
        <time>2023-02-25T09:00:05.992Z</time>
      </trkpt>
      <trkpt lat="45.19725" lon="6.40784">
        <ele>1878</ele>
        <time>2023-02-25T09:00:13.040Z</time>
      </trkpt>
      <trkpt lat="45.19719" lon="6.40774">
        <ele>1879</ele>
        <time>2023-02-25T09:00:20.017Z</time>
      </trkpt>
      <trkpt lat="45.19713" lon="6.40764">
        <ele>1880</ele>
        <time>2023-02-25T09:00:28.020Z</time>
      </trkpt>
      <trkpt lat="45.19706" lon="6.40755">
        <ele>1881</ele>
        <time>2023-02-25T09:00:35.012Z</time>
      </trkpt>
      <trkpt lat="45.197" lon="6.40746">
        <ele>1882</ele>
        <time>2023-02-25T09:00:42.987Z</time>
      </trkpt>
      <trkpt lat="45.19695" lon="6.40734">
        <ele>1883</ele>
        <time>2023-02-25T09:00:49.997Z</time>
      </trkpt>
      <trkpt lat="45.19688" lon="6.40724">
        <ele>1883</ele>
        <time>2023-02-25T09:00:58.022Z</time>
      </trkpt>
      <trkpt lat="45.19681" lon="6.40715">
        <ele>1884</ele>
        <time>2023-02-25T09:01:04.023Z</time>
      </trkpt>
      <trkpt lat="45.19674" lon="6.40707">
        <ele>1884</ele>
        <time>2023-02-25T09:01:11.023Z</time>
      </trkpt>
      <trkpt lat="45.19667" lon="6.40698">
        <ele>1884</ele>
        <time>2023-02-25T09:01:18.996Z</time>
      </trkpt>
      <trkpt lat="45.19662" lon="6.40688">
        <ele>1884</ele>
        <time>2023-02-25T09:01:27.004Z</time>
      </trkpt>
      <trkpt lat="45.19655" lon="6.40679">
        <ele>1884</ele>
        <time>2023-02-25T09:01:35.993Z</time>
      </trkpt>
      <trkpt lat="45.19648" lon="6.40668">
        <ele>1884</ele>
        <time>2023-02-25T09:01:45.000Z</time>
      </trkpt>
      <trkpt lat="45.19646" lon="6.40654">
        <ele>1884</ele>
        <time>2023-02-25T09:01:53.019Z</time>
      </trkpt>
      <trkpt lat="45.19645" lon="6.4064">
        <ele>1883</ele>
        <time>2023-02-25T09:02:03.007Z</time>
      </trkpt>
      <trkpt lat="45.19643" lon="6.40627">
        <ele>1883</ele>
        <time>2023-02-25T09:02:13.001Z</time>
      </trkpt>
      <trkpt lat="45.19639" lon="6.40615">
        <ele>1883</ele>
        <time>2023-02-25T09:02:25.026Z</time>
      </trkpt>
      <trkpt lat="45.19631" lon="6.40607">
        <ele>1885</ele>
        <time>2023-02-25T09:02:39.021Z</time>
      </trkpt>
      <trkpt lat="45.19627" lon="6.40606">
        <ele>1888</ele>
        <time>2023-02-25T09:02:56.008Z</time>
      </trkpt>
      <trkpt lat="45.19627" lon="6.40606">
        <ele>1888</ele>
        <time>2023-02-25T09:03:23.993Z</time>
      </trkpt>
      <trkpt lat="45.19605" lon="6.40594">
        <ele>1891</ele>
        <time>2023-02-25T09:03:25.014Z</time>
      </trkpt>
      <trkpt lat="45.19596" lon="6.40592">
        <ele>1891</ele>
        <time>2023-02-25T09:03:34.014Z</time>
      </trkpt>
      <trkpt lat="45.19588" lon="6.40599">
        <ele>1889</ele>
        <time>2023-02-25T09:03:49.020Z</time>
      </trkpt>
      <trkpt lat="45.19584" lon="6.40586">
        <ele>1888</ele>
        <time>2023-02-25T09:04:04.004Z</time>
      </trkpt>
      <trkpt lat="45.1958" lon="6.40574">
        <ele>1886</ele>
        <time>2023-02-25T09:04:17.997Z</time>
      </trkpt>
      <trkpt lat="45.19578" lon="6.40562">
        <ele>1886</ele>
        <time>2023-02-25T09:04:27.974Z</time>
      </trkpt>
      <trkpt lat="45.19572" lon="6.40552">
        <ele>1887</ele>
        <time>2023-02-25T09:04:38.988Z</time>
      </trkpt>
      <trkpt lat="45.19572" lon="6.40539">
        <ele>1888</ele>
        <time>2023-02-25T09:04:52.023Z</time>
      </trkpt>
      <trkpt lat="45.19567" lon="6.40528">
        <ele>1890</ele>
        <time>2023-02-25T09:05:05.029Z</time>
      </trkpt>
      <trkpt lat="45.1956" lon="6.4052">
        <ele>1892</ele>
        <time>2023-02-25T09:05:16.996Z</time>
      </trkpt>
      <trkpt lat="45.19552" lon="6.40511">
        <ele>1895</ele>
        <time>2023-02-25T09:05:31.020Z</time>
      </trkpt>
      <trkpt lat="45.19553" lon="6.40498">
        <ele>1899</ele>
        <time>2023-02-25T09:05:45.021Z</time>
      </trkpt>
      <trkpt lat="45.19557" lon="6.40486">
        <ele>1904</ele>
        <time>2023-02-25T09:06:00.996Z</time>
      </trkpt>
      <trkpt lat="45.19556" lon="6.40473">
        <ele>1909</ele>
        <time>2023-02-25T09:06:13.016Z</time>
      </trkpt>
      <trkpt lat="45.19551" lon="6.40462">
        <ele>1912</ele>
        <time>2023-02-25T09:06:25.988Z</time>
      </trkpt>
      <trkpt lat="45.19545" lon="6.4045">
        <ele>1915</ele>
        <time>2023-02-25T09:06:40.998Z</time>
      </trkpt>
      <trkpt lat="45.19537" lon="6.40443">
        <ele>1915</ele>
        <time>2023-02-25T09:06:51.980Z</time>
      </trkpt>
      <trkpt lat="45.1953" lon="6.40434">
        <ele>1915</ele>
        <time>2023-02-25T09:07:08.979Z</time>
      </trkpt>
      <trkpt lat="45.1953" lon="6.40432">
        <ele>1916</ele>
        <time>2023-02-25T09:07:22.979Z</time>
      </trkpt>
      <trkpt lat="45.1953" lon="6.40432">
        <ele>1916</ele>
        <time>2023-02-25T09:08:18.950Z</time>
      </trkpt>
      <trkpt lat="45.19514" lon="6.40409">
        <ele>1926</ele>
        <time>2023-02-25T09:08:19.991Z</time>
      </trkpt>
      <trkpt lat="45.1951" lon="6.40398">
        <ele>1931</ele>
        <time>2023-02-25T09:08:37.979Z</time>
      </trkpt>
      <trkpt lat="45.1951" lon="6.40384">
        <ele>1934</ele>
        <time>2023-02-25T09:08:50.006Z</time>
      </trkpt>
      <trkpt lat="45.19509" lon="6.40371">
        <ele>1939</ele>
        <time>2023-02-25T09:09:06.000Z</time>
      </trkpt>
      <trkpt lat="45.19512" lon="6.4036">
        <ele>1943</ele>
        <time>2023-02-25T09:09:25.983Z</time>
      </trkpt>
      <trkpt lat="45.19512" lon="6.4036">
        <ele>1943</ele>
        <time>2023-02-25T09:09:56.972Z</time>
      </trkpt>
      <trkpt lat="45.19516" lon="6.40328">
        <ele>1945</ele>
        <time>2023-02-25T09:09:57.992Z</time>
      </trkpt>
      <trkpt lat="45.19513" lon="6.40316">
        <ele>1945</ele>
        <time>2023-02-25T09:10:09.996Z</time>
      </trkpt>
      <trkpt lat="45.1951" lon="6.40304">
        <ele>1946</ele>
        <time>2023-02-25T09:10:20.987Z</time>
      </trkpt>
      <trkpt lat="45.19504" lon="6.40293">
        <ele>1948</ele>
        <time>2023-02-25T09:10:35.992Z</time>
      </trkpt>
      <trkpt lat="45.19503" lon="6.40281">
        <ele>1951</ele>
        <time>2023-02-25T09:10:50.974Z</time>
      </trkpt>
      <trkpt lat="45.19499" lon="6.40268">
        <ele>1953</ele>
        <time>2023-02-25T09:11:03.975Z</time>
      </trkpt>
      <trkpt lat="45.19497" lon="6.40261">
        <ele>1956</ele>
        <time>2023-02-25T09:11:23.992Z</time>
      </trkpt>
      <trkpt lat="45.19497" lon="6.40261">
        <ele>1956</ele>
        <time>2023-02-25T09:12:11.016Z</time>
      </trkpt>
      <trkpt lat="45.19493" lon="6.40228">
        <ele>1966</ele>
        <time>2023-02-25T09:12:12.009Z</time>
      </trkpt>
      <trkpt lat="45.19494" lon="6.40215">
        <ele>1967</ele>
        <time>2023-02-25T09:12:23.983Z</time>
      </trkpt>
      <trkpt lat="45.19488" lon="6.40204">
        <ele>1970</ele>
        <time>2023-02-25T09:12:39.985Z</time>
      </trkpt>
      <trkpt lat="45.19483" lon="6.40193">
        <ele>1971</ele>
        <time>2023-02-25T09:12:55.003Z</time>
      </trkpt>
      <trkpt lat="45.19477" lon="6.40184">
        <ele>1973</ele>
        <time>2023-02-25T09:13:14.990Z</time>
      </trkpt>
      <trkpt lat="45.19475" lon="6.4017">
        <ele>1977</ele>
        <time>2023-02-25T09:13:34.010Z</time>
      </trkpt>
      <trkpt lat="45.19471" lon="6.40158">
        <ele>1979</ele>
        <time>2023-02-25T09:13:47.993Z</time>
      </trkpt>
      <trkpt lat="45.19469" lon="6.40145">
        <ele>1982</ele>
        <time>2023-02-25T09:14:01.002Z</time>
      </trkpt>
      <trkpt lat="45.19471" lon="6.40147">
        <ele>1987</ele>
        <time>2023-02-25T09:14:17.002Z</time>
      </trkpt>
      <trkpt lat="45.19471" lon="6.40147">
        <ele>1987</ele>
        <time>2023-02-25T09:14:50.025Z</time>
      </trkpt>
      <trkpt lat="45.19467" lon="6.40115">
        <ele>1993</ele>
        <time>2023-02-25T09:14:51.028Z</time>
      </trkpt>
      <trkpt lat="45.19461" lon="6.40105">
        <ele>1993</ele>
        <time>2023-02-25T09:15:03.009Z</time>
      </trkpt>
      <trkpt lat="45.19457" lon="6.40093">
        <ele>1994</ele>
        <time>2023-02-25T09:15:16.013Z</time>
      </trkpt>
      <trkpt lat="45.19458" lon="6.4008">
        <ele>1996</ele>
        <time>2023-02-25T09:15:29.012Z</time>
      </trkpt>
      <trkpt lat="45.19453" lon="6.40069">
        <ele>1998</ele>
        <time>2023-02-25T09:15:44.023Z</time>
      </trkpt>
      <trkpt lat="45.1945" lon="6.40056">
        <ele>2000</ele>
        <time>2023-02-25T09:15:56.004Z</time>
      </trkpt>
      <trkpt lat="45.19444" lon="6.40046">
        <ele>2001</ele>
        <time>2023-02-25T09:16:05.026Z</time>
      </trkpt>
      <trkpt lat="45.19439" lon="6.40035">
        <ele>2002</ele>
        <time>2023-02-25T09:16:16.008Z</time>
      </trkpt>
      <trkpt lat="45.19435" lon="6.40023">
        <ele>2003</ele>
        <time>2023-02-25T09:16:25.977Z</time>
      </trkpt>
      <trkpt lat="45.19428" lon="6.40014">
        <ele>2003</ele>
        <time>2023-02-25T09:16:36.973Z</time>
      </trkpt>
      <trkpt lat="45.1942" lon="6.40006">
        <ele>2003</ele>
        <time>2023-02-25T09:16:45.996Z</time>
      </trkpt>
      <trkpt lat="45.19411" lon="6.4">
        <ele>2001</ele>
        <time>2023-02-25T09:17:07.007Z</time>
      </trkpt>
      <trkpt lat="45.19413" lon="6.39987">
        <ele>2001</ele>
        <time>2023-02-25T09:17:21.017Z</time>
      </trkpt>
      <trkpt lat="45.19407" lon="6.39977">
        <ele>2003</ele>
        <time>2023-02-25T09:17:37.000Z</time>
      </trkpt>
      <trkpt lat="45.19405" lon="6.39964">
        <ele>2004</ele>
        <time>2023-02-25T09:17:49.986Z</time>
      </trkpt>
      <trkpt lat="45.19398" lon="6.39955">
        <ele>2004</ele>
        <time>2023-02-25T09:17:59.000Z</time>
      </trkpt>
      <trkpt lat="45.19389" lon="6.3995">
        <ele>2004</ele>
        <time>2023-02-25T09:18:08.006Z</time>
      </trkpt>
      <trkpt lat="45.19383" lon="6.3994">
        <ele>2005</ele>
        <time>2023-02-25T09:18:21.005Z</time>
      </trkpt>
      <trkpt lat="45.19377" lon="6.3993">
        <ele>2007</ele>
        <time>2023-02-25T09:18:31.001Z</time>
      </trkpt>
      <trkpt lat="45.19372" lon="6.39919">
        <ele>2008</ele>
        <time>2023-02-25T09:18:47.022Z</time>
      </trkpt>
      <trkpt lat="45.19367" lon="6.39909">
        <ele>2010</ele>
        <time>2023-02-25T09:18:56.968Z</time>
      </trkpt>
      <trkpt lat="45.19364" lon="6.39895">
        <ele>2011</ele>
        <time>2023-02-25T09:19:09.012Z</time>
      </trkpt>
      <trkpt lat="45.19362" lon="6.39882">
        <ele>2013</ele>
        <time>2023-02-25T09:19:21.000Z</time>
      </trkpt>
      <trkpt lat="45.19357" lon="6.3987">
        <ele>2014</ele>
        <time>2023-02-25T09:19:29.994Z</time>
      </trkpt>
      <trkpt lat="45.19356" lon="6.39864">
        <ele>2017</ele>
        <time>2023-02-25T09:19:49.011Z</time>
      </trkpt>
      <trkpt lat="45.19356" lon="6.39864">
        <ele>2017</ele>
        <time>2023-02-25T09:21:50.975Z</time>
      </trkpt>
      <trkpt lat="45.1934" lon="6.3984">
        <ele>2016</ele>
        <time>2023-02-25T09:21:51.976Z</time>
      </trkpt>
      <trkpt lat="45.19336" lon="6.39836">
        <ele>2016</ele>
        <time>2023-02-25T09:22:06.013Z</time>
      </trkpt>
      <trkpt lat="45.19336" lon="6.39836">
        <ele>2016</ele>
        <time>2023-02-25T09:22:45.003Z</time>
      </trkpt>
      <trkpt lat="45.19343" lon="6.39805">
        <ele>2019</ele>
        <time>2023-02-25T09:22:45.997Z</time>
      </trkpt>
      <trkpt lat="45.19347" lon="6.39792">
        <ele>2021</ele>
        <time>2023-02-25T09:22:56.988Z</time>
      </trkpt>
      <trkpt lat="45.19346" lon="6.39778">
        <ele>2024</ele>
        <time>2023-02-25T09:23:08.014Z</time>
      </trkpt>
      <trkpt lat="45.19347" lon="6.39773">
        <ele>2028</ele>
        <time>2023-02-25T09:23:26.016Z</time>
      </trkpt>
      <trkpt lat="45.19347" lon="6.39773">
        <ele>2028</ele>
        <time>2023-02-25T09:24:14.010Z</time>
      </trkpt>
      <trkpt lat="45.19339" lon="6.39743">
        <ele>2033</ele>
        <time>2023-02-25T09:24:15.021Z</time>
      </trkpt>
      <trkpt lat="45.19337" lon="6.3973">
        <ele>2034</ele>
        <time>2023-02-25T09:24:29.989Z</time>
      </trkpt>
      <trkpt lat="45.19338" lon="6.39716">
        <ele>2034</ele>
        <time>2023-02-25T09:24:42.001Z</time>
      </trkpt>
      <trkpt lat="45.1934" lon="6.39704">
        <ele>2035</ele>
        <time>2023-02-25T09:24:52.017Z</time>
      </trkpt>
      <trkpt lat="45.19342" lon="6.39691">
        <ele>2036</ele>
        <time>2023-02-25T09:25:04.998Z</time>
      </trkpt>
      <trkpt lat="45.19337" lon="6.3968">
        <ele>2038</ele>
        <time>2023-02-25T09:25:17.996Z</time>
      </trkpt>
      <trkpt lat="45.19331" lon="6.39669">
        <ele>2040</ele>
        <time>2023-02-25T09:25:29.993Z</time>
      </trkpt>
      <trkpt lat="45.19329" lon="6.39656">
        <ele>2044</ele>
        <time>2023-02-25T09:25:44.998Z</time>
      </trkpt>
      <trkpt lat="45.19326" lon="6.39643">
        <ele>2046</ele>
        <time>2023-02-25T09:25:59.036Z</time>
      </trkpt>
      <trkpt lat="45.19329" lon="6.3963">
        <ele>2047</ele>
        <time>2023-02-25T09:26:09.006Z</time>
      </trkpt>
      <trkpt lat="45.19324" lon="6.39618">
        <ele>2049</ele>
        <time>2023-02-25T09:26:23.009Z</time>
      </trkpt>
      <trkpt lat="45.19323" lon="6.39605">
        <ele>2050</ele>
        <time>2023-02-25T09:26:35.997Z</time>
      </trkpt>
      <trkpt lat="45.19319" lon="6.39592">
        <ele>2052</ele>
        <time>2023-02-25T09:26:49.010Z</time>
      </trkpt>
      <trkpt lat="45.19315" lon="6.3958">
        <ele>2052</ele>
        <time>2023-02-25T09:27:01.009Z</time>
      </trkpt>
      <trkpt lat="45.19308" lon="6.39571">
        <ele>2053</ele>
        <time>2023-02-25T09:27:15.993Z</time>
      </trkpt>
      <trkpt lat="45.19303" lon="6.39559">
        <ele>2053</ele>
        <time>2023-02-25T09:27:28.000Z</time>
      </trkpt>
      <trkpt lat="45.19298" lon="6.39547">
        <ele>2054</ele>
        <time>2023-02-25T09:27:40.032Z</time>
      </trkpt>
      <trkpt lat="45.19292" lon="6.39538">
        <ele>2058</ele>
        <time>2023-02-25T09:27:56.001Z</time>
      </trkpt>
      <trkpt lat="45.19286" lon="6.39533">
        <ele>2062</ele>
        <time>2023-02-25T09:28:17.020Z</time>
      </trkpt>
      <trkpt lat="45.19286" lon="6.39533">
        <ele>2062</ele>
        <time>2023-02-25T09:29:17.975Z</time>
      </trkpt>
      <trkpt lat="45.19272" lon="6.39507">
        <ele>2064</ele>
        <time>2023-02-25T09:29:19.023Z</time>
      </trkpt>
      <trkpt lat="45.19265" lon="6.39498">
        <ele>2066</ele>
        <time>2023-02-25T09:29:29.999Z</time>
      </trkpt>
      <trkpt lat="45.19263" lon="6.39485">
        <ele>2070</ele>
        <time>2023-02-25T09:29:48.019Z</time>
      </trkpt>
      <trkpt lat="45.19259" lon="6.39473">
        <ele>2072</ele>
        <time>2023-02-25T09:30:04.013Z</time>
      </trkpt>
      <trkpt lat="45.19257" lon="6.3946">
        <ele>2073</ele>
        <time>2023-02-25T09:30:18.012Z</time>
      </trkpt>
      <trkpt lat="45.19253" lon="6.39448">
        <ele>2075</ele>
        <time>2023-02-25T09:30:31.015Z</time>
      </trkpt>
      <trkpt lat="45.1925" lon="6.39436">
        <ele>2076</ele>
        <time>2023-02-25T09:30:45.018Z</time>
      </trkpt>
      <trkpt lat="45.19246" lon="6.39423">
        <ele>2078</ele>
        <time>2023-02-25T09:30:57.976Z</time>
      </trkpt>
      <trkpt lat="45.19241" lon="6.39412">
        <ele>2080</ele>
        <time>2023-02-25T09:31:15.009Z</time>
      </trkpt>
      <trkpt lat="45.19235" lon="6.39402">
        <ele>2082</ele>
        <time>2023-02-25T09:31:29.012Z</time>
      </trkpt>
      <trkpt lat="45.19227" lon="6.39394">
        <ele>2083</ele>
        <time>2023-02-25T09:31:43.022Z</time>
      </trkpt>
      <trkpt lat="45.19221" lon="6.39384">
        <ele>2085</ele>
        <time>2023-02-25T09:31:55.993Z</time>
      </trkpt>
      <trkpt lat="45.19215" lon="6.39374">
        <ele>2087</ele>
        <time>2023-02-25T09:32:12.997Z</time>
      </trkpt>
      <trkpt lat="45.19208" lon="6.39367">
        <ele>2089</ele>
        <time>2023-02-25T09:32:27.999Z</time>
      </trkpt>
      <trkpt lat="45.19199" lon="6.3936">
        <ele>2091</ele>
        <time>2023-02-25T09:32:44.977Z</time>
      </trkpt>
      <trkpt lat="45.19194" lon="6.3935">
        <ele>2092</ele>
        <time>2023-02-25T09:32:59.000Z</time>
      </trkpt>
      <trkpt lat="45.19185" lon="6.39345">
        <ele>2093</ele>
        <time>2023-02-25T09:33:12.035Z</time>
      </trkpt>
      <trkpt lat="45.19176" lon="6.39346">
        <ele>2093</ele>
        <time>2023-02-25T09:33:27.004Z</time>
      </trkpt>
      <trkpt lat="45.19167" lon="6.39344">
        <ele>2095</ele>
        <time>2023-02-25T09:33:49.011Z</time>
      </trkpt>
      <trkpt lat="45.19159" lon="6.39338">
        <ele>2098</ele>
        <time>2023-02-25T09:34:08.015Z</time>
      </trkpt>
      <trkpt lat="45.19153" lon="6.39327">
        <ele>2100</ele>
        <time>2023-02-25T09:34:19.013Z</time>
      </trkpt>
      <trkpt lat="45.19151" lon="6.39314">
        <ele>2104</ele>
        <time>2023-02-25T09:34:35.017Z</time>
      </trkpt>
      <trkpt lat="45.19155" lon="6.39306">
        <ele>2108</ele>
        <time>2023-02-25T09:34:51.994Z</time>
      </trkpt>
      <trkpt lat="45.19155" lon="6.39306">
        <ele>2108</ele>
        <time>2023-02-25T09:35:43.990Z</time>
      </trkpt>
      <trkpt lat="45.19164" lon="6.39277">
        <ele>2123</ele>
        <time>2023-02-25T09:35:44.998Z</time>
      </trkpt>
      <trkpt lat="45.19164" lon="6.39275">
        <ele>2124</ele>
        <time>2023-02-25T09:35:50.020Z</time>
      </trkpt>
      <trkpt lat="45.19164" lon="6.39275">
        <ele>2124</ele>
        <time>2023-02-25T09:37:09.987Z</time>
      </trkpt>
      <trkpt lat="45.19174" lon="6.39245">
        <ele>2138</ele>
        <time>2023-02-25T09:37:10.970Z</time>
      </trkpt>
      <trkpt lat="45.19173" lon="6.39233">
        <ele>2143</ele>
        <time>2023-02-25T09:37:39.997Z</time>
      </trkpt>
      <trkpt lat="45.19173" lon="6.39233">
        <ele>2143</ele>
        <time>2023-02-25T09:39:03.985Z</time>
      </trkpt>
      <trkpt lat="45.19181" lon="6.39204">
        <ele>2149</ele>
        <time>2023-02-25T09:39:04.978Z</time>
      </trkpt>
      <trkpt lat="45.19188" lon="6.39195">
        <ele>2149</ele>
        <time>2023-02-25T09:39:25.956Z</time>
      </trkpt>
      <trkpt lat="45.19179" lon="6.39193">
        <ele>2151</ele>
        <time>2023-02-25T09:39:56.982Z</time>
      </trkpt>
      <trkpt lat="45.19176" lon="6.39193">
        <ele>2151</ele>
        <time>2023-02-25T09:40:09.987Z</time>
      </trkpt>
      <trkpt lat="45.19176" lon="6.39193">
        <ele>2151</ele>
        <time>2023-02-25T09:44:27.975Z</time>
      </trkpt>
      <trkpt lat="45.19183" lon="6.39162">
        <ele>2155</ele>
        <time>2023-02-25T09:44:29.037Z</time>
      </trkpt>
      <trkpt lat="45.19174" lon="6.39159">
        <ele>2156</ele>
        <time>2023-02-25T09:44:49.988Z</time>
      </trkpt>
      <trkpt lat="45.19169" lon="6.39153">
        <ele>2158</ele>
        <time>2023-02-25T09:45:27.017Z</time>
      </trkpt>
      <trkpt lat="45.19169" lon="6.39153">
        <ele>2158</ele>
        <time>2023-02-25T09:46:33.004Z</time>
      </trkpt>
      <trkpt lat="45.19151" lon="6.39134">
        <ele>2162</ele>
        <time>2023-02-25T09:46:34.026Z</time>
      </trkpt>
      <trkpt lat="45.19149" lon="6.39122">
        <ele>2166</ele>
        <time>2023-02-25T09:46:59.994Z</time>
      </trkpt>
      <trkpt lat="45.19143" lon="6.39111">
        <ele>2170</ele>
        <time>2023-02-25T09:47:21.006Z</time>
      </trkpt>
      <trkpt lat="45.19136" lon="6.39103">
        <ele>2173</ele>
        <time>2023-02-25T09:47:36.001Z</time>
      </trkpt>
      <trkpt lat="45.1913" lon="6.39093">
        <ele>2176</ele>
        <time>2023-02-25T09:47:50.989Z</time>
      </trkpt>
      <trkpt lat="45.19125" lon="6.39082">
        <ele>2178</ele>
        <time>2023-02-25T09:48:02.985Z</time>
      </trkpt>
      <trkpt lat="45.19118" lon="6.39073">
        <ele>2181</ele>
        <time>2023-02-25T09:48:19.996Z</time>
      </trkpt>
      <trkpt lat="45.19112" lon="6.39062">
        <ele>2183</ele>
        <time>2023-02-25T09:48:33.014Z</time>
      </trkpt>
      <trkpt lat="45.19105" lon="6.39054">
        <ele>2186</ele>
        <time>2023-02-25T09:48:55.027Z</time>
      </trkpt>
      <trkpt lat="45.19105" lon="6.39054">
        <ele>2186</ele>
        <time>2023-02-25T09:57:07.978Z</time>
      </trkpt>
      <trkpt lat="45.19087" lon="6.39032">
        <ele>2191</ele>
        <time>2023-02-25T09:57:08.999Z</time>
      </trkpt>
      <trkpt lat="45.19087" lon="6.39032">
        <ele>2191</ele>
        <time>2023-02-25T09:57:19.020Z</time>
      </trkpt>
      <trkpt lat="45.19087" lon="6.39032">
        <ele>2191</ele>
        <time>2023-02-25T09:57:52.012Z</time>
      </trkpt>
      <trkpt lat="45.1907" lon="6.3901">
        <ele>2189</ele>
        <time>2023-02-25T09:57:53.005Z</time>
      </trkpt>
      <trkpt lat="45.19062" lon="6.39004">
        <ele>2189</ele>
        <time>2023-02-25T09:58:06.008Z</time>
      </trkpt>
      <trkpt lat="45.19053" lon="6.39001">
        <ele>2190</ele>
        <time>2023-02-25T09:58:17.012Z</time>
      </trkpt>
      <trkpt lat="45.19043" lon="6.39">
        <ele>2191</ele>
        <time>2023-02-25T09:58:28.990Z</time>
      </trkpt>
      <trkpt lat="45.19034" lon="6.38997">
        <ele>2193</ele>
        <time>2023-02-25T09:58:42.025Z</time>
      </trkpt>
      <trkpt lat="45.19028" lon="6.38987">
        <ele>2195</ele>
        <time>2023-02-25T09:58:55.977Z</time>
      </trkpt>
      <trkpt lat="45.19019" lon="6.3899">
        <ele>2197</ele>
        <time>2023-02-25T09:59:14.022Z</time>
      </trkpt>
      <trkpt lat="45.19012" lon="6.38981">
        <ele>2201</ele>
        <time>2023-02-25T09:59:35.008Z</time>
      </trkpt>
      <trkpt lat="45.1901" lon="6.38968">
        <ele>2204</ele>
        <time>2023-02-25T09:59:50.010Z</time>
      </trkpt>
      <trkpt lat="45.19002" lon="6.3896">
        <ele>2208</ele>
        <time>2023-02-25T10:00:02.990Z</time>
      </trkpt>
      <trkpt lat="45.18995" lon="6.38954">
        <ele>2212</ele>
        <time>2023-02-25T10:00:23.004Z</time>
      </trkpt>
      <trkpt lat="45.18986" lon="6.3895">
        <ele>2215</ele>
        <time>2023-02-25T10:00:39.982Z</time>
      </trkpt>
      <trkpt lat="45.18985" lon="6.38937">
        <ele>2217</ele>
        <time>2023-02-25T10:00:58.995Z</time>
      </trkpt>
      <trkpt lat="45.18976" lon="6.38938">
        <ele>2219</ele>
        <time>2023-02-25T10:01:11.029Z</time>
      </trkpt>
      <trkpt lat="45.18971" lon="6.38949">
        <ele>2224</ele>
        <time>2023-02-25T10:01:30.000Z</time>
      </trkpt>
      <trkpt lat="45.18965" lon="6.3896">
        <ele>2228</ele>
        <time>2023-02-25T10:01:46.019Z</time>
      </trkpt>
      <trkpt lat="45.18964" lon="6.38959">
        <ele>2230</ele>
        <time>2023-02-25T10:01:53.992Z</time>
      </trkpt>
      <trkpt lat="45.18964" lon="6.38959">
        <ele>2230</ele>
        <time>2023-02-25T10:02:45.006Z</time>
      </trkpt>
      <trkpt lat="45.18943" lon="6.38971">
        <ele>2235</ele>
        <time>2023-02-25T10:02:46.004Z</time>
      </trkpt>
      <trkpt lat="45.18934" lon="6.38969">
        <ele>2237</ele>
        <time>2023-02-25T10:03:07.042Z</time>
      </trkpt>
      <trkpt lat="45.1893" lon="6.38957">
        <ele>2237</ele>
        <time>2023-02-25T10:03:18.000Z</time>
      </trkpt>
      <trkpt lat="45.18921" lon="6.38958">
        <ele>2239</ele>
        <time>2023-02-25T10:03:35.996Z</time>
      </trkpt>
      <trkpt lat="45.18914" lon="6.38966">
        <ele>2242</ele>
        <time>2023-02-25T10:03:51.989Z</time>
      </trkpt>
      <trkpt lat="45.18908" lon="6.38976">
        <ele>2246</ele>
        <time>2023-02-25T10:04:09.005Z</time>
      </trkpt>
      <trkpt lat="45.189" lon="6.38971">
        <ele>2251</ele>
        <time>2023-02-25T10:04:35.005Z</time>
      </trkpt>
      <trkpt lat="45.18896" lon="6.38959">
        <ele>2254</ele>
        <time>2023-02-25T10:04:50.999Z</time>
      </trkpt>
      <trkpt lat="45.18887" lon="6.38955">
        <ele>2259</ele>
        <time>2023-02-25T10:05:13.036Z</time>
      </trkpt>
      <trkpt lat="45.18878" lon="6.38958">
        <ele>2261</ele>
        <time>2023-02-25T10:05:26.988Z</time>
      </trkpt>
      <trkpt lat="45.18876" lon="6.38946">
        <ele>2263</ele>
        <time>2023-02-25T10:05:40.999Z</time>
      </trkpt>
      <trkpt lat="45.18875" lon="6.38941">
        <ele>2264</ele>
        <time>2023-02-25T10:05:59.002Z</time>
      </trkpt>
      <trkpt lat="45.18875" lon="6.38941">
        <ele>2264</ele>
        <time>2023-02-25T10:08:33.012Z</time>
      </trkpt>
      <trkpt lat="45.18855" lon="6.38925">
        <ele>2272</ele>
        <time>2023-02-25T10:08:33.985Z</time>
      </trkpt>
      <trkpt lat="45.18846" lon="6.3892">
        <ele>2274</ele>
        <time>2023-02-25T10:08:48.009Z</time>
      </trkpt>
      <trkpt lat="45.18838" lon="6.38913">
        <ele>2276</ele>
        <time>2023-02-25T10:09:03.989Z</time>
      </trkpt>
      <trkpt lat="45.1883" lon="6.38908">
        <ele>2279</ele>
        <time>2023-02-25T10:09:20.000Z</time>
      </trkpt>
      <trkpt lat="45.18821" lon="6.38907">
        <ele>2281</ele>
        <time>2023-02-25T10:09:40.984Z</time>
      </trkpt>
      <trkpt lat="45.18812" lon="6.38904">
        <ele>2283</ele>
        <time>2023-02-25T10:09:57.006Z</time>
      </trkpt>
      <trkpt lat="45.18803" lon="6.38905">
        <ele>2286</ele>
        <time>2023-02-25T10:10:17.965Z</time>
      </trkpt>
      <trkpt lat="45.18793" lon="6.38904">
        <ele>2288</ele>
        <time>2023-02-25T10:10:34.997Z</time>
      </trkpt>
      <trkpt lat="45.18785" lon="6.38897">
        <ele>2290</ele>
        <time>2023-02-25T10:10:48.996Z</time>
      </trkpt>
      <trkpt lat="45.18776" lon="6.3889">
        <ele>2294</ele>
        <time>2023-02-25T10:11:11.969Z</time>
      </trkpt>
      <trkpt lat="45.18768" lon="6.38882">
        <ele>2297</ele>
        <time>2023-02-25T10:11:25.998Z</time>
      </trkpt>
      <trkpt lat="45.1876" lon="6.38875">
        <ele>2301</ele>
        <time>2023-02-25T10:11:43.983Z</time>
      </trkpt>
      <trkpt lat="45.18751" lon="6.38873">
        <ele>2306</ele>
        <time>2023-02-25T10:12:01.984Z</time>
      </trkpt>
      <trkpt lat="45.18742" lon="6.3887">
        <ele>2309</ele>
        <time>2023-02-25T10:12:19.980Z</time>
      </trkpt>
      <trkpt lat="45.18733" lon="6.38866">
        <ele>2310</ele>
        <time>2023-02-25T10:12:34.979Z</time>
      </trkpt>
      <trkpt lat="45.18724" lon="6.38861">
        <ele>2311</ele>
        <time>2023-02-25T10:12:45.976Z</time>
      </trkpt>
      <trkpt lat="45.18715" lon="6.38859">
        <ele>2312</ele>
        <time>2023-02-25T10:12:58.970Z</time>
      </trkpt>
      <trkpt lat="45.18708" lon="6.3885">
        <ele>2313</ele>
        <time>2023-02-25T10:13:18.970Z</time>
      </trkpt>
      <trkpt lat="45.18706" lon="6.38837">
        <ele>2314</ele>
        <time>2023-02-25T10:13:33.983Z</time>
      </trkpt>
      <trkpt lat="45.18704" lon="6.38824">
        <ele>2317</ele>
        <time>2023-02-25T10:13:52.998Z</time>
      </trkpt>
      <trkpt lat="45.18703" lon="6.38811">
        <ele>2322</ele>
        <time>2023-02-25T10:14:08.977Z</time>
      </trkpt>
      <trkpt lat="45.18704" lon="6.38807">
        <ele>2324</ele>
        <time>2023-02-25T10:14:24.003Z</time>
      </trkpt>
      <trkpt lat="45.18704" lon="6.38807">
        <ele>2324</ele>
        <time>2023-02-25T10:15:21.992Z</time>
      </trkpt>
      <trkpt lat="45.18695" lon="6.38777">
        <ele>2335</ele>
        <time>2023-02-25T10:15:23.000Z</time>
      </trkpt>
      <trkpt lat="45.18695" lon="6.38776">
        <ele>2336</ele>
        <time>2023-02-25T10:15:36.016Z</time>
      </trkpt>
      <trkpt lat="45.18695" lon="6.38776">
        <ele>2336</ele>
        <time>2023-02-25T10:20:11.020Z</time>
      </trkpt>
      <trkpt lat="45.18685" lon="6.38747">
        <ele>2341</ele>
        <time>2023-02-25T10:20:11.995Z</time>
      </trkpt>
      <trkpt lat="45.18684" lon="6.38734">
        <ele>2342</ele>
        <time>2023-02-25T10:20:22.986Z</time>
      </trkpt>
      <trkpt lat="45.18678" lon="6.38724">
        <ele>2344</ele>
        <time>2023-02-25T10:20:38.018Z</time>
      </trkpt>
      <trkpt lat="45.18677" lon="6.38723">
        <ele>2345</ele>
        <time>2023-02-25T10:20:51.986Z</time>
      </trkpt>
      <trkpt lat="45.18677" lon="6.38723">
        <ele>2345</ele>
        <time>2023-02-25T10:21:36.012Z</time>
      </trkpt>
      <trkpt lat="45.18655" lon="6.3872">
        <ele>2348</ele>
        <time>2023-02-25T10:21:37.004Z</time>
      </trkpt>
      <trkpt lat="45.18646" lon="6.38715">
        <ele>2350</ele>
        <time>2023-02-25T10:21:50.996Z</time>
      </trkpt>
      <trkpt lat="45.18639" lon="6.38707">
        <ele>2352</ele>
        <time>2023-02-25T10:22:04.012Z</time>
      </trkpt>
      <trkpt lat="45.18632" lon="6.387">
        <ele>2356</ele>
        <time>2023-02-25T10:22:26.989Z</time>
      </trkpt>
      <trkpt lat="45.18632" lon="6.387">
        <ele>2356</ele>
        <time>2023-02-25T10:23:24.995Z</time>
      </trkpt>
      <trkpt lat="45.18629" lon="6.38732">
        <ele>2360</ele>
        <time>2023-02-25T10:23:26.008Z</time>
      </trkpt>
      <trkpt lat="45.18628" lon="6.38745">
        <ele>2368</ele>
        <time>2023-02-25T10:23:55.997Z</time>
      </trkpt>
      <trkpt lat="45.18619" lon="6.38741">
        <ele>2375</ele>
        <time>2023-02-25T10:24:26.027Z</time>
      </trkpt>
      <trkpt lat="45.1861" lon="6.38745">
        <ele>2375</ele>
        <time>2023-02-25T10:24:44.008Z</time>
      </trkpt>
      <trkpt lat="45.18604" lon="6.3875">
        <ele>2377</ele>
        <time>2023-02-25T10:25:06.010Z</time>
      </trkpt>
      <trkpt lat="45.18604" lon="6.3875">
        <ele>2377</ele>
        <time>2023-02-25T10:25:55.035Z</time>
      </trkpt>
      <trkpt lat="45.18598" lon="6.38781">
        <ele>2379</ele>
        <time>2023-02-25T10:25:56.037Z</time>
      </trkpt>
      <trkpt lat="45.18599" lon="6.38781">
        <ele>2380</ele>
        <time>2023-02-25T10:26:01.998Z</time>
      </trkpt>
      <trkpt lat="45.18599" lon="6.38781">
        <ele>2380</ele>
        <time>2023-02-25T10:26:37.022Z</time>
      </trkpt>
      <trkpt lat="45.18585" lon="6.38755">
        <ele>2381</ele>
        <time>2023-02-25T10:26:37.991Z</time>
      </trkpt>
      <trkpt lat="45.18577" lon="6.38748">
        <ele>2383</ele>
        <time>2023-02-25T10:26:53.993Z</time>
      </trkpt>
      <trkpt lat="45.1857" lon="6.38741">
        <ele>2386</ele>
        <time>2023-02-25T10:27:08.003Z</time>
      </trkpt>
      <trkpt lat="45.18562" lon="6.38733">
        <ele>2389</ele>
        <time>2023-02-25T10:27:23.010Z</time>
      </trkpt>
      <trkpt lat="45.18554" lon="6.38726">
        <ele>2392</ele>
        <time>2023-02-25T10:27:38.009Z</time>
      </trkpt>
      <trkpt lat="45.18547" lon="6.38717">
        <ele>2392</ele>
        <time>2023-02-25T10:27:53.982Z</time>
      </trkpt>
      <trkpt lat="45.18542" lon="6.38707">
        <ele>2393</ele>
        <time>2023-02-25T10:28:09.023Z</time>
      </trkpt>
      <trkpt lat="45.18538" lon="6.387">
        <ele>2398</ele>
        <time>2023-02-25T10:28:37.986Z</time>
      </trkpt>
      <trkpt lat="45.18538" lon="6.387">
        <ele>2398</ele>
        <time>2023-02-25T10:29:16.988Z</time>
      </trkpt>
      <trkpt lat="45.1853" lon="6.38731">
        <ele>2404</ele>
        <time>2023-02-25T10:29:17.989Z</time>
      </trkpt>
      <trkpt lat="45.18533" lon="6.38743">
        <ele>2406</ele>
        <time>2023-02-25T10:29:35.998Z</time>
      </trkpt>
      <trkpt lat="45.18533" lon="6.38743">
        <ele>2406</ele>
        <time>2023-02-25T10:30:43.005Z</time>
      </trkpt>
      <trkpt lat="45.18515" lon="6.38723">
        <ele>2414</ele>
        <time>2023-02-25T10:30:44.009Z</time>
      </trkpt>
      <trkpt lat="45.18507" lon="6.38715">
        <ele>2416</ele>
        <time>2023-02-25T10:30:59.981Z</time>
      </trkpt>
      <trkpt lat="45.185" lon="6.38706">
        <ele>2418</ele>
        <time>2023-02-25T10:31:15.006Z</time>
      </trkpt>
      <trkpt lat="45.18491" lon="6.38707">
        <ele>2420</ele>
        <time>2023-02-25T10:31:32.973Z</time>
      </trkpt>
      <trkpt lat="45.18481" lon="6.38707">
        <ele>2421</ele>
        <time>2023-02-25T10:31:49.011Z</time>
      </trkpt>
      <trkpt lat="45.18472" lon="6.38709">
        <ele>2423</ele>
        <time>2023-02-25T10:32:05.990Z</time>
      </trkpt>
      <trkpt lat="45.18463" lon="6.38708">
        <ele>2426</ele>
        <time>2023-02-25T10:32:27.985Z</time>
      </trkpt>
      <trkpt lat="45.18453" lon="6.38706">
        <ele>2429</ele>
        <time>2023-02-25T10:32:45.000Z</time>
      </trkpt>
      <trkpt lat="45.18447" lon="6.38696">
        <ele>2432</ele>
        <time>2023-02-25T10:33:00.964Z</time>
      </trkpt>
      <trkpt lat="45.18444" lon="6.38683">
        <ele>2435</ele>
        <time>2023-02-25T10:33:14.992Z</time>
      </trkpt>
      <trkpt lat="45.18434" lon="6.38684">
        <ele>2437</ele>
        <time>2023-02-25T10:33:33.987Z</time>
      </trkpt>
      <trkpt lat="45.18425" lon="6.38689">
        <ele>2439</ele>
        <time>2023-02-25T10:33:49.992Z</time>
      </trkpt>
      <trkpt lat="45.18417" lon="6.38693">
        <ele>2443</ele>
        <time>2023-02-25T10:34:10.012Z</time>
      </trkpt>
      <trkpt lat="45.18408" lon="6.38697">
        <ele>2447</ele>
        <time>2023-02-25T10:34:28.969Z</time>
      </trkpt>
      <trkpt lat="45.18399" lon="6.387">
        <ele>2450</ele>
        <time>2023-02-25T10:34:51.001Z</time>
      </trkpt>
      <trkpt lat="45.18399" lon="6.387">
        <ele>2450</ele>
        <time>2023-02-25T10:36:08.004Z</time>
      </trkpt>
      <trkpt lat="45.18378" lon="6.38687">
        <ele>2463</ele>
        <time>2023-02-25T10:36:09.003Z</time>
      </trkpt>
      <trkpt lat="45.1837" lon="6.38682">
        <ele>2467</ele>
        <time>2023-02-25T10:36:32.967Z</time>
      </trkpt>
      <trkpt lat="45.18363" lon="6.38673">
        <ele>2471</ele>
        <time>2023-02-25T10:36:55.018Z</time>
      </trkpt>
      <trkpt lat="45.18353" lon="6.38672">
        <ele>2475</ele>
        <time>2023-02-25T10:37:15.019Z</time>
      </trkpt>
      <trkpt lat="45.18344" lon="6.38674">
        <ele>2478</ele>
        <time>2023-02-25T10:37:36.018Z</time>
      </trkpt>
      <trkpt lat="45.1834" lon="6.38681">
        <ele>2479</ele>
        <time>2023-02-25T10:37:52.018Z</time>
      </trkpt>
      <trkpt lat="45.1834" lon="6.38681">
        <ele>2479</ele>
        <time>2023-02-25T10:38:48.998Z</time>
      </trkpt>
      <trkpt lat="45.18319" lon="6.3867">
        <ele>2489</ele>
        <time>2023-02-25T10:38:50.021Z</time>
      </trkpt>
      <trkpt lat="45.18318" lon="6.38671">
        <ele>2490</ele>
        <time>2023-02-25T10:39:01.986Z</time>
      </trkpt>
      <trkpt lat="45.18318" lon="6.38671">
        <ele>2490</ele>
        <time>2023-02-25T10:45:26.972Z</time>
      </trkpt>
      <trkpt lat="45.18297" lon="6.38658">
        <ele>2497</ele>
        <time>2023-02-25T10:45:27.977Z</time>
      </trkpt>
      <trkpt lat="45.18289" lon="6.38663">
        <ele>2501</ele>
        <time>2023-02-25T10:45:44.978Z</time>
      </trkpt>
      <trkpt lat="45.1828" lon="6.38656">
        <ele>2506</ele>
        <time>2023-02-25T10:46:08.973Z</time>
      </trkpt>
      <trkpt lat="45.18272" lon="6.38651">
        <ele>2508</ele>
        <time>2023-02-25T10:46:36.968Z</time>
      </trkpt>
      <trkpt lat="45.1827" lon="6.38653">
        <ele>2509</ele>
        <time>2023-02-25T10:46:46.977Z</time>
      </trkpt>
      <trkpt lat="45.1827" lon="6.38653">
        <ele>2509</ele>
        <time>2023-02-25T10:48:26.981Z</time>
      </trkpt>
      <trkpt lat="45.18249" lon="6.38641">
        <ele>2520</ele>
        <time>2023-02-25T10:48:27.959Z</time>
      </trkpt>
      <trkpt lat="45.18246" lon="6.38629">
        <ele>2521</ele>
        <time>2023-02-25T10:48:45.990Z</time>
      </trkpt>
      <trkpt lat="45.18246" lon="6.38616">
        <ele>2522</ele>
        <time>2023-02-25T10:49:01.982Z</time>
      </trkpt>
      <trkpt lat="45.18244" lon="6.38603">
        <ele>2522</ele>
        <time>2023-02-25T10:49:26.004Z</time>
      </trkpt>
      <trkpt lat="45.18236" lon="6.38594">
        <ele>2525</ele>
        <time>2023-02-25T10:49:44.002Z</time>
      </trkpt>
      <trkpt lat="45.18231" lon="6.38584">
        <ele>2530</ele>
        <time>2023-02-25T10:50:05.994Z</time>
      </trkpt>
      <trkpt lat="45.18222" lon="6.38587">
        <ele>2534</ele>
        <time>2023-02-25T10:50:21.980Z</time>
      </trkpt>
      <trkpt lat="45.18213" lon="6.38592">
        <ele>2538</ele>
        <time>2023-02-25T10:50:43.003Z</time>
      </trkpt>
      <trkpt lat="45.18204" lon="6.38595">
        <ele>2540</ele>
        <time>2023-02-25T10:51:03.008Z</time>
      </trkpt>
      <trkpt lat="45.18196" lon="6.38602">
        <ele>2542</ele>
        <time>2023-02-25T10:51:24.994Z</time>
      </trkpt>
      <trkpt lat="45.1819" lon="6.38607">
        <ele>2543</ele>
        <time>2023-02-25T10:51:44.996Z</time>
      </trkpt>
      <trkpt lat="45.1819" lon="6.38607">
        <ele>2543</ele>
        <time>2023-02-25T10:52:35.023Z</time>
      </trkpt>
      <trkpt lat="45.18191" lon="6.38639">
        <ele>2548</ele>
        <time>2023-02-25T10:52:36.003Z</time>
      </trkpt>
      <trkpt lat="45.18189" lon="6.38645">
        <ele>2553</ele>
        <time>2023-02-25T10:53:00.006Z</time>
      </trkpt>
      <trkpt lat="45.18189" lon="6.38645">
        <ele>2553</ele>
        <time>2023-02-25T10:53:41.991Z</time>
      </trkpt>
      <trkpt lat="45.18171" lon="6.38626">
        <ele>2561</ele>
        <time>2023-02-25T10:53:43.007Z</time>
      </trkpt>
      <trkpt lat="45.18163" lon="6.38618">
        <ele>2564</ele>
        <time>2023-02-25T10:54:02.000Z</time>
      </trkpt>
      <trkpt lat="45.18156" lon="6.3861">
        <ele>2569</ele>
        <time>2023-02-25T10:54:25.995Z</time>
      </trkpt>
      <trkpt lat="45.18152" lon="6.38605">
        <ele>2573</ele>
        <time>2023-02-25T10:54:41.991Z</time>
      </trkpt>
      <trkpt lat="45.18152" lon="6.38605">
        <ele>2573</ele>
        <time>2023-02-25T11:02:54.026Z</time>
      </trkpt>
      <trkpt lat="45.18126" lon="6.38587">
        <ele>2579</ele>
        <time>2023-02-25T11:02:55.003Z</time>
      </trkpt>
      <trkpt lat="45.18117" lon="6.38582">
        <ele>2582</ele>
        <time>2023-02-25T11:03:12.001Z</time>
      </trkpt>
      <trkpt lat="45.18109" lon="6.38575">
        <ele>2585</ele>
        <time>2023-02-25T11:03:29.024Z</time>
      </trkpt>
      <trkpt lat="45.18103" lon="6.38565">
        <ele>2588</ele>
        <time>2023-02-25T11:03:53.011Z</time>
      </trkpt>
      <trkpt lat="45.18098" lon="6.38554">
        <ele>2589</ele>
        <time>2023-02-25T11:04:08.008Z</time>
      </trkpt>
      <trkpt lat="45.18098" lon="6.38553">
        <ele>2589</ele>
        <time>2023-02-25T11:04:20.975Z</time>
      </trkpt>
      <trkpt lat="45.18098" lon="6.38553">
        <ele>2589</ele>
        <time>2023-02-25T11:11:04.987Z</time>
      </trkpt>
      <trkpt lat="45.1811" lon="6.38526">
        <ele>2587</ele>
        <time>2023-02-25T11:11:05.996Z</time>
      </trkpt>
      <trkpt lat="45.18118" lon="6.3852">
        <ele>2587</ele>
        <time>2023-02-25T11:11:29.017Z</time>
      </trkpt>
      <trkpt lat="45.18118" lon="6.3852">
        <ele>2587</ele>
        <time>2023-02-25T11:13:03.992Z</time>
      </trkpt>
      <trkpt lat="45.18134" lon="6.38498">
        <ele>2598</ele>
        <time>2023-02-25T11:13:05.003Z</time>
      </trkpt>
      <trkpt lat="45.18134" lon="6.38497">
        <ele>2599</ele>
        <time>2023-02-25T11:13:23.026Z</time>
      </trkpt>
      <trkpt lat="45.18134" lon="6.38497">
        <ele>2599</ele>
        <time>2023-02-25T11:14:11.005Z</time>
      </trkpt>
      <trkpt lat="45.18112" lon="6.38494">
        <ele>2607</ele>
        <time>2023-02-25T11:14:12.016Z</time>
      </trkpt>
      <trkpt lat="45.18111" lon="6.38491">
        <ele>2607</ele>
        <time>2023-02-25T11:14:23.013Z</time>
      </trkpt>
      <trkpt lat="45.18111" lon="6.38491">
        <ele>2607</ele>
        <time>2023-02-25T11:15:07.031Z</time>
      </trkpt>
      <trkpt lat="45.18091" lon="6.38474">
        <ele>2606</ele>
        <time>2023-02-25T11:15:08.018Z</time>
      </trkpt>
      <trkpt lat="45.18086" lon="6.38464">
        <ele>2607</ele>
        <time>2023-02-25T11:15:25.031Z</time>
      </trkpt>
      <trkpt lat="45.18078" lon="6.38456">
        <ele>2608</ele>
        <time>2023-02-25T11:15:41.030Z</time>
      </trkpt>
      <trkpt lat="45.18072" lon="6.38447">
        <ele>2609</ele>
        <time>2023-02-25T11:15:57.016Z</time>
      </trkpt>
      <trkpt lat="45.18064" lon="6.3844">
        <ele>2610</ele>
        <time>2023-02-25T11:16:11.018Z</time>
      </trkpt>
      <trkpt lat="45.18059" lon="6.38429">
        <ele>2611</ele>
        <time>2023-02-25T11:16:27.998Z</time>
      </trkpt>
      <trkpt lat="45.18053" lon="6.38419">
        <ele>2613</ele>
        <time>2023-02-25T11:16:43.013Z</time>
      </trkpt>
      <trkpt lat="45.18048" lon="6.38408">
        <ele>2615</ele>
        <time>2023-02-25T11:17:02.034Z</time>
      </trkpt>
      <trkpt lat="45.18043" lon="6.38397">
        <ele>2619</ele>
        <time>2023-02-25T11:17:18.000Z</time>
      </trkpt>
      <trkpt lat="45.18039" lon="6.38384">
        <ele>2622</ele>
        <time>2023-02-25T11:17:31.032Z</time>
      </trkpt>
      <trkpt lat="45.18034" lon="6.38373">
        <ele>2623</ele>
        <time>2023-02-25T11:17:50.991Z</time>
      </trkpt>
      <trkpt lat="45.18028" lon="6.38362">
        <ele>2623</ele>
        <time>2023-02-25T11:18:06.000Z</time>
      </trkpt>
      <trkpt lat="45.18022" lon="6.38352">
        <ele>2622</ele>
        <time>2023-02-25T11:18:22.986Z</time>
      </trkpt>
      <trkpt lat="45.18015" lon="6.38344">
        <ele>2622</ele>
        <time>2023-02-25T11:18:36.006Z</time>
      </trkpt>
      <trkpt lat="45.18009" lon="6.38334">
        <ele>2623</ele>
        <time>2023-02-25T11:18:55.979Z</time>
      </trkpt>
      <trkpt lat="45.18002" lon="6.38326">
        <ele>2623</ele>
        <time>2023-02-25T11:19:08.972Z</time>
      </trkpt>
      <trkpt lat="45.17995" lon="6.38319">
        <ele>2625</ele>
        <time>2023-02-25T11:19:36.983Z</time>
      </trkpt>
      <trkpt lat="45.17995" lon="6.38319">
        <ele>2625</ele>
        <time>2023-02-25T11:20:19.991Z</time>
      </trkpt>
      <trkpt lat="45.17983" lon="6.38291">
        <ele>2630</ele>
        <time>2023-02-25T11:20:20.981Z</time>
      </trkpt>
      <trkpt lat="45.17978" lon="6.38281">
        <ele>2632</ele>
        <time>2023-02-25T11:20:34.977Z</time>
      </trkpt>
      <trkpt lat="45.17975" lon="6.38267">
        <ele>2633</ele>
        <time>2023-02-25T11:20:47.977Z</time>
      </trkpt>
      <trkpt lat="45.17971" lon="6.38255">
        <ele>2632</ele>
        <time>2023-02-25T11:21:00.985Z</time>
      </trkpt>
      <trkpt lat="45.17966" lon="6.38244">
        <ele>2632</ele>
        <time>2023-02-25T11:21:14.974Z</time>
      </trkpt>
      <trkpt lat="45.1796" lon="6.38234">
        <ele>2633</ele>
        <time>2023-02-25T11:21:29.989Z</time>
      </trkpt>
      <trkpt lat="45.1796" lon="6.38234">
        <ele>2634</ele>
        <time>2023-02-25T11:21:38.987Z</time>
      </trkpt>
      <trkpt lat="45.1796" lon="6.38234">
        <ele>2634</ele>
        <time>2023-02-25T11:24:55.991Z</time>
      </trkpt>
      <trkpt lat="45.17947" lon="6.38207">
        <ele>2638</ele>
        <time>2023-02-25T11:24:57.024Z</time>
      </trkpt>
      <trkpt lat="45.17942" lon="6.38195">
        <ele>2641</ele>
        <time>2023-02-25T11:25:16.999Z</time>
      </trkpt>
      <trkpt lat="45.17938" lon="6.3819">
        <ele>2642</ele>
        <time>2023-02-25T11:25:39.015Z</time>
      </trkpt>
      <trkpt lat="45.17938" lon="6.3819">
        <ele>2642</ele>
        <time>2023-02-25T11:36:47.025Z</time>
      </trkpt>
      <trkpt lat="45.17945" lon="6.38158">
        <ele>2648</ele>
        <time>2023-02-25T11:36:48.026Z</time>
      </trkpt>
      <trkpt lat="45.17946" lon="6.38145">
        <ele>2648</ele>
        <time>2023-02-25T11:37:05.022Z</time>
      </trkpt>
      <trkpt lat="45.17946" lon="6.38131">
        <ele>2648</ele>
        <time>2023-02-25T11:37:32.025Z</time>
      </trkpt>
      <trkpt lat="45.17948" lon="6.38118">
        <ele>2648</ele>
        <time>2023-02-25T11:37:50.017Z</time>
      </trkpt>
      <trkpt lat="45.1795" lon="6.38105">
        <ele>2649</ele>
        <time>2023-02-25T11:38:09.974Z</time>
      </trkpt>
      <trkpt lat="45.17946" lon="6.38092">
        <ele>2650</ele>
        <time>2023-02-25T11:38:28.000Z</time>
      </trkpt>
      <trkpt lat="45.17942" lon="6.38081">
        <ele>2652</ele>
        <time>2023-02-25T11:38:46.013Z</time>
      </trkpt>
      <trkpt lat="45.1794" lon="6.38077">
        <ele>2653</ele>
        <time>2023-02-25T11:39:06.028Z</time>
      </trkpt>
      <trkpt lat="45.1794" lon="6.38077">
        <ele>2653</ele>
        <time>2023-02-25T11:41:04.005Z</time>
      </trkpt>
      <trkpt lat="45.17942" lon="6.38042">
        <ele>2663</ele>
        <time>2023-02-25T11:41:05.025Z</time>
      </trkpt>
      <trkpt lat="45.17941" lon="6.38037">
        <ele>2664</ele>
        <time>2023-02-25T11:41:20.026Z</time>
      </trkpt>
      <trkpt lat="45.17941" lon="6.38037">
        <ele>2664</ele>
        <time>2023-02-25T12:00:15.016Z</time>
      </trkpt>
      <trkpt lat="45.1792" lon="6.38022">
        <ele>2666</ele>
        <time>2023-02-25T12:00:16.013Z</time>
      </trkpt>
      <trkpt lat="45.17912" lon="6.38033">
        <ele>2665</ele>
        <time>2023-02-25T12:00:19.998Z</time>
      </trkpt>
      <trkpt lat="45.17904" lon="6.38042">
        <ele>2665</ele>
        <time>2023-02-25T12:00:23.015Z</time>
      </trkpt>
      <trkpt lat="45.17892" lon="6.38045">
        <ele>2665</ele>
        <time>2023-02-25T12:00:26.001Z</time>
      </trkpt>
      <trkpt lat="45.17878" lon="6.38058">
        <ele>2665</ele>
        <time>2023-02-25T12:00:28.999Z</time>
      </trkpt>
      <trkpt lat="45.17858" lon="6.38056">
        <ele>2664</ele>
        <time>2023-02-25T12:00:33.028Z</time>
      </trkpt>
      <trkpt lat="45.17833" lon="6.38076">
        <ele>2662</ele>
        <time>2023-02-25T12:00:38.007Z</time>
      </trkpt>
      <trkpt lat="45.17802" lon="6.38055">
        <ele>2660</ele>
        <time>2023-02-25T12:00:42.012Z</time>
      </trkpt>
      <trkpt lat="45.17771" lon="6.38041">
        <ele>2653</ele>
        <time>2023-02-25T12:00:49.017Z</time>
      </trkpt>
      <trkpt lat="45.17758" lon="6.38038">
        <ele>2644</ele>
        <time>2023-02-25T12:00:56.982Z</time>
      </trkpt>
      <trkpt lat="45.17758" lon="6.38038">
        <ele>2634</ele>
        <time>2023-02-25T12:01:04.989Z</time>
      </trkpt>
      <trkpt lat="45.17758" lon="6.38038">
        <ele>2634</ele>
        <time>2023-02-25T12:02:03.009Z</time>
      </trkpt>
      <trkpt lat="45.17749" lon="6.38072">
        <ele>2607</ele>
        <time>2023-02-25T12:02:04.021Z</time>
      </trkpt>
      <trkpt lat="45.17737" lon="6.38076">
        <ele>2606</ele>
        <time>2023-02-25T12:02:06.978Z</time>
      </trkpt>
      <trkpt lat="45.17727" lon="6.38095">
        <ele>2604</ele>
        <time>2023-02-25T12:02:10.985Z</time>
      </trkpt>
      <trkpt lat="45.17711" lon="6.38084">
        <ele>2598</ele>
        <time>2023-02-25T12:02:19.001Z</time>
      </trkpt>
      <trkpt lat="45.17713" lon="6.38102">
        <ele>2595</ele>
        <time>2023-02-25T12:02:22.008Z</time>
      </trkpt>
      <trkpt lat="45.17717" lon="6.38119">
        <ele>2592</ele>
        <time>2023-02-25T12:02:25.024Z</time>
      </trkpt>
      <trkpt lat="45.17702" lon="6.38127">
        <ele>2587</ele>
        <time>2023-02-25T12:02:28.999Z</time>
      </trkpt>
      <trkpt lat="45.17693" lon="6.38151">
        <ele>2581</ele>
        <time>2023-02-25T12:02:34.033Z</time>
      </trkpt>
      <trkpt lat="45.17686" lon="6.38163">
        <ele>2546</ele>
        <time>2023-02-25T12:03:06.017Z</time>
      </trkpt>
      <trkpt lat="45.1768" lon="6.3818">
        <ele>2545</ele>
        <time>2023-02-25T12:03:08.996Z</time>
      </trkpt>
      <trkpt lat="45.17668" lon="6.3819">
        <ele>2542</ele>
        <time>2023-02-25T12:03:13.024Z</time>
      </trkpt>
      <trkpt lat="45.17666" lon="6.38192">
        <ele>2535</ele>
        <time>2023-02-25T12:03:26.992Z</time>
      </trkpt>
      <trkpt lat="45.17666" lon="6.38192">
        <ele>2535</ele>
        <time>2023-02-25T12:04:08.024Z</time>
      </trkpt>
      <trkpt lat="45.17663" lon="6.38227">
        <ele>2523</ele>
        <time>2023-02-25T12:04:09.001Z</time>
      </trkpt>
      <trkpt lat="45.17656" lon="6.38235">
        <ele>2523</ele>
        <time>2023-02-25T12:04:11.017Z</time>
      </trkpt>
      <trkpt lat="45.17648" lon="6.38251">
        <ele>2522</ele>
        <time>2023-02-25T12:04:14.025Z</time>
      </trkpt>
      <trkpt lat="45.17634" lon="6.38263">
        <ele>2521</ele>
        <time>2023-02-25T12:04:17.027Z</time>
      </trkpt>
      <trkpt lat="45.17612" lon="6.38281">
        <ele>2520</ele>
        <time>2023-02-25T12:04:21.016Z</time>
      </trkpt>
      <trkpt lat="45.17598" lon="6.38311">
        <ele>2518</ele>
        <time>2023-02-25T12:04:25.030Z</time>
      </trkpt>
      <trkpt lat="45.17591" lon="6.38346">
        <ele>2512</ele>
        <time>2023-02-25T12:04:32.977Z</time>
      </trkpt>
      <trkpt lat="45.17591" lon="6.38349">
        <ele>2499</ele>
        <time>2023-02-25T12:04:48.014Z</time>
      </trkpt>
      <trkpt lat="45.17591" lon="6.38349">
        <ele>2499</ele>
        <time>2023-02-25T12:05:03.991Z</time>
      </trkpt>
      <trkpt lat="45.17579" lon="6.3838">
        <ele>2487</ele>
        <time>2023-02-25T12:05:05.010Z</time>
      </trkpt>
      <trkpt lat="45.17567" lon="6.38384">
        <ele>2486</ele>
        <time>2023-02-25T12:05:07.997Z</time>
      </trkpt>
      <trkpt lat="45.17563" lon="6.38407">
        <ele>2484</ele>
        <time>2023-02-25T12:05:11.016Z</time>
      </trkpt>
      <trkpt lat="45.17547" lon="6.3843">
        <ele>2483</ele>
        <time>2023-02-25T12:05:14.999Z</time>
      </trkpt>
      <trkpt lat="45.17521" lon="6.38448">
        <ele>2481</ele>
        <time>2023-02-25T12:05:20.006Z</time>
      </trkpt>
      <trkpt lat="45.17497" lon="6.38482">
        <ele>2478</ele>
        <time>2023-02-25T12:05:25.044Z</time>
      </trkpt>
      <trkpt lat="45.17467" lon="6.38481">
        <ele>2475</ele>
        <time>2023-02-25T12:05:29.994Z</time>
      </trkpt>
      <trkpt lat="45.17442" lon="6.38493">
        <ele>2470</ele>
        <time>2023-02-25T12:05:35.997Z</time>
      </trkpt>
      <trkpt lat="45.17443" lon="6.38496">
        <ele>2452</ele>
        <time>2023-02-25T12:05:53.001Z</time>
      </trkpt>
      <trkpt lat="45.17443" lon="6.38496">
        <ele>2452</ele>
        <time>2023-02-25T12:17:37.021Z</time>
      </trkpt>
      <trkpt lat="45.17465" lon="6.38489">
        <ele>2418</ele>
        <time>2023-02-25T12:17:38.010Z</time>
      </trkpt>
      <trkpt lat="45.17473" lon="6.38483">
        <ele>2419</ele>
        <time>2023-02-25T12:17:53.021Z</time>
      </trkpt>
      <trkpt lat="45.17482" lon="6.38477">
        <ele>2421</ele>
        <time>2023-02-25T12:18:09.013Z</time>
      </trkpt>
      <trkpt lat="45.1749" lon="6.38474">
        <ele>2425</ele>
        <time>2023-02-25T12:18:28.010Z</time>
      </trkpt>
      <trkpt lat="45.17499" lon="6.38471">
        <ele>2429</ele>
        <time>2023-02-25T12:18:49.998Z</time>
      </trkpt>
      <trkpt lat="45.17508" lon="6.38468">
        <ele>2433</ele>
        <time>2023-02-25T12:19:12.042Z</time>
      </trkpt>
      <trkpt lat="45.17517" lon="6.38465">
        <ele>2435</ele>
        <time>2023-02-25T12:19:32.018Z</time>
      </trkpt>
      <trkpt lat="45.17526" lon="6.38463">
        <ele>2437</ele>
        <time>2023-02-25T12:19:49.991Z</time>
      </trkpt>
      <trkpt lat="45.17535" lon="6.3846">
        <ele>2440</ele>
        <time>2023-02-25T12:20:12.024Z</time>
      </trkpt>
      <trkpt lat="45.17544" lon="6.38457">
        <ele>2443</ele>
        <time>2023-02-25T12:20:37.005Z</time>
      </trkpt>
      <trkpt lat="45.17544" lon="6.38457">
        <ele>2443</ele>
        <time>2023-02-25T12:21:24.032Z</time>
      </trkpt>
      <trkpt lat="45.17567" lon="6.38454">
        <ele>2450</ele>
        <time>2023-02-25T12:21:24.993Z</time>
      </trkpt>
      <trkpt lat="45.17576" lon="6.38452">
        <ele>2453</ele>
        <time>2023-02-25T12:21:45.003Z</time>
      </trkpt>
      <trkpt lat="45.17585" lon="6.38449">
        <ele>2454</ele>
        <time>2023-02-25T12:22:07.003Z</time>
      </trkpt>
      <trkpt lat="45.17594" lon="6.3845">
        <ele>2456</ele>
        <time>2023-02-25T12:22:25.000Z</time>
      </trkpt>
      <trkpt lat="45.176" lon="6.38452">
        <ele>2458</ele>
        <time>2023-02-25T12:22:48.021Z</time>
      </trkpt>
      <trkpt lat="45.176" lon="6.38452">
        <ele>2458</ele>
        <time>2023-02-25T12:24:58.026Z</time>
      </trkpt>
      <trkpt lat="45.1762" lon="6.38436">
        <ele>2477</ele>
        <time>2023-02-25T12:24:58.986Z</time>
      </trkpt>
      <trkpt lat="45.17622" lon="6.38423">
        <ele>2480</ele>
        <time>2023-02-25T12:25:19.003Z</time>
      </trkpt>
      <trkpt lat="45.17623" lon="6.3841">
        <ele>2483</ele>
        <time>2023-02-25T12:25:34.981Z</time>
      </trkpt>
      <trkpt lat="45.1763" lon="6.38401">
        <ele>2488</ele>
        <time>2023-02-25T12:25:53.974Z</time>
      </trkpt>
      <trkpt lat="45.17631" lon="6.38399">
        <ele>2491</ele>
        <time>2023-02-25T12:26:07.975Z</time>
      </trkpt>
      <trkpt lat="45.17631" lon="6.38399">
        <ele>2491</ele>
        <time>2023-02-25T12:27:33.026Z</time>
      </trkpt>
      <trkpt lat="45.17647" lon="6.38375">
        <ele>2499</ele>
        <time>2023-02-25T12:27:34.060Z</time>
      </trkpt>
      <trkpt lat="45.17654" lon="6.38368">
        <ele>2500</ele>
        <time>2023-02-25T12:27:49.011Z</time>
      </trkpt>
      <trkpt lat="45.17658" lon="6.38361">
        <ele>2502</ele>
        <time>2023-02-25T12:28:17.966Z</time>
      </trkpt>
      <trkpt lat="45.17658" lon="6.38361">
        <ele>2502</ele>
        <time>2023-02-25T12:31:31.070Z</time>
      </trkpt>
      <trkpt lat="45.17678" lon="6.38346">
        <ele>2510</ele>
        <time>2023-02-25T12:31:32.032Z</time>
      </trkpt>
      <trkpt lat="45.17685" lon="6.38338">
        <ele>2512</ele>
        <time>2023-02-25T12:31:54.982Z</time>
      </trkpt>
      <trkpt lat="45.17694" lon="6.38334">
        <ele>2516</ele>
        <time>2023-02-25T12:32:12.049Z</time>
      </trkpt>
      <trkpt lat="45.17702" lon="6.38339">
        <ele>2520</ele>
        <time>2023-02-25T12:32:30.011Z</time>
      </trkpt>
      <trkpt lat="45.17709" lon="6.38348">
        <ele>2522</ele>
        <time>2023-02-25T12:32:47.035Z</time>
      </trkpt>
      <trkpt lat="45.17713" lon="6.38349">
        <ele>2523</ele>
        <time>2023-02-25T12:33:04.013Z</time>
      </trkpt>
      <trkpt lat="45.17713" lon="6.38349">
        <ele>2523</ele>
        <time>2023-02-25T12:39:05.981Z</time>
      </trkpt>
      <trkpt lat="45.17737" lon="6.38348">
        <ele>2531</ele>
        <time>2023-02-25T12:39:07.001Z</time>
      </trkpt>
      <trkpt lat="45.17744" lon="6.38356">
        <ele>2532</ele>
        <time>2023-02-25T12:39:21.021Z</time>
      </trkpt>
      <trkpt lat="45.17753" lon="6.38362">
        <ele>2533</ele>
        <time>2023-02-25T12:39:32.030Z</time>
      </trkpt>
      <trkpt lat="45.17759" lon="6.38371">
        <ele>2535</ele>
        <time>2023-02-25T12:39:45.999Z</time>
      </trkpt>
      <trkpt lat="45.17767" lon="6.38379">
        <ele>2537</ele>
        <time>2023-02-25T12:40:03.987Z</time>
      </trkpt>
      <trkpt lat="45.17773" lon="6.38389">
        <ele>2539</ele>
        <time>2023-02-25T12:40:19.002Z</time>
      </trkpt>
      <trkpt lat="45.17776" lon="6.38402">
        <ele>2542</ele>
        <time>2023-02-25T12:40:40.991Z</time>
      </trkpt>
      <trkpt lat="45.17777" lon="6.38403">
        <ele>2543</ele>
        <time>2023-02-25T12:40:45.014Z</time>
      </trkpt>
      <trkpt lat="45.17777" lon="6.38403">
        <ele>2543</ele>
        <time>2023-02-25T12:41:36.035Z</time>
      </trkpt>
      <trkpt lat="45.17791" lon="6.38378">
        <ele>2552</ele>
        <time>2023-02-25T12:41:37.076Z</time>
      </trkpt>
      <trkpt lat="45.17797" lon="6.38368">
        <ele>2555</ele>
        <time>2023-02-25T12:41:48.064Z</time>
      </trkpt>
      <trkpt lat="45.178" lon="6.38356">
        <ele>2558</ele>
        <time>2023-02-25T12:42:08.067Z</time>
      </trkpt>
      <trkpt lat="45.17809" lon="6.38357">
        <ele>2562</ele>
        <time>2023-02-25T12:42:30.033Z</time>
      </trkpt>
      <trkpt lat="45.17815" lon="6.38367">
        <ele>2564</ele>
        <time>2023-02-25T12:42:44.053Z</time>
      </trkpt>
      <trkpt lat="45.17818" lon="6.38379">
        <ele>2566</ele>
        <time>2023-02-25T12:43:00.988Z</time>
      </trkpt>
      <trkpt lat="45.17818" lon="6.38392">
        <ele>2568</ele>
        <time>2023-02-25T12:43:16.029Z</time>
      </trkpt>
      <trkpt lat="45.17818" lon="6.38395">
        <ele>2570</ele>
        <time>2023-02-25T12:43:33.057Z</time>
      </trkpt>
      <trkpt lat="45.17818" lon="6.38395">
        <ele>2570</ele>
        <time>2023-02-25T12:44:38.066Z</time>
      </trkpt>
      <trkpt lat="45.17827" lon="6.38366">
        <ele>2573</ele>
        <time>2023-02-25T12:44:39.041Z</time>
      </trkpt>
      <trkpt lat="45.1783" lon="6.38353">
        <ele>2577</ele>
        <time>2023-02-25T12:44:58.040Z</time>
      </trkpt>
      <trkpt lat="45.17832" lon="6.38341">
        <ele>2580</ele>
        <time>2023-02-25T12:45:17.085Z</time>
      </trkpt>
      <trkpt lat="45.17837" lon="6.38329">
        <ele>2583</ele>
        <time>2023-02-25T12:45:33.990Z</time>
      </trkpt>
      <trkpt lat="45.17843" lon="6.38319">
        <ele>2586</ele>
        <time>2023-02-25T12:45:51.054Z</time>
      </trkpt>
      <trkpt lat="45.17851" lon="6.38314">
        <ele>2588</ele>
        <time>2023-02-25T12:46:08.083Z</time>
      </trkpt>
      <trkpt lat="45.1786" lon="6.38312">
        <ele>2590</ele>
        <time>2023-02-25T12:46:25.057Z</time>
      </trkpt>
      <trkpt lat="45.17869" lon="6.38308">
        <ele>2592</ele>
        <time>2023-02-25T12:46:43.050Z</time>
      </trkpt>
      <trkpt lat="45.17877" lon="6.38313">
        <ele>2595</ele>
        <time>2023-02-25T12:47:11.002Z</time>
      </trkpt>
      <trkpt lat="45.1788" lon="6.38326">
        <ele>2598</ele>
        <time>2023-02-25T12:47:25.012Z</time>
      </trkpt>
      <trkpt lat="45.17881" lon="6.38338">
        <ele>2601</ele>
        <time>2023-02-25T12:47:39.039Z</time>
      </trkpt>
      <trkpt lat="45.17882" lon="6.38339">
        <ele>2603</ele>
        <time>2023-02-25T12:47:53.009Z</time>
      </trkpt>
      <trkpt lat="45.17882" lon="6.38339">
        <ele>2603</ele>
        <time>2023-02-25T12:55:46.021Z</time>
      </trkpt>
      <trkpt lat="45.179" lon="6.3832">
        <ele>2608</ele>
        <time>2023-02-25T12:55:47.011Z</time>
      </trkpt>
      <trkpt lat="45.17904" lon="6.38315">
        <ele>2611</ele>
        <time>2023-02-25T12:56:05.057Z</time>
      </trkpt>
      <trkpt lat="45.17904" lon="6.38315">
        <ele>2611</ele>
        <time>2023-02-25T12:57:11.085Z</time>
      </trkpt>
      <trkpt lat="45.17924" lon="6.38298">
        <ele>2622</ele>
        <time>2023-02-25T12:57:12.035Z</time>
      </trkpt>
      <trkpt lat="45.17929" lon="6.38291">
        <ele>2628</ele>
        <time>2023-02-25T12:57:40.060Z</time>
      </trkpt>
      <trkpt lat="45.17929" lon="6.38291">
        <ele>2628</ele>
        <time>2023-02-25T13:07:09.019Z</time>
      </trkpt>
      <trkpt lat="45.17948" lon="6.3831">
        <ele>2628</ele>
        <time>2023-02-25T13:07:10.042Z</time>
      </trkpt>
      <trkpt lat="45.17955" lon="6.38318">
        <ele>2628</ele>
        <time>2023-02-25T13:07:14.036Z</time>
      </trkpt>
      <trkpt lat="45.17963" lon="6.38326">
        <ele>2628</ele>
        <time>2023-02-25T13:07:19.050Z</time>
      </trkpt>
      <trkpt lat="45.17972" lon="6.38337">
        <ele>2628</ele>
        <time>2023-02-25T13:07:24.065Z</time>
      </trkpt>
      <trkpt lat="45.17977" lon="6.38348">
        <ele>2628</ele>
        <time>2023-02-25T13:07:26.088Z</time>
      </trkpt>
      <trkpt lat="45.17983" lon="6.38358">
        <ele>2627</ele>
        <time>2023-02-25T13:07:28.034Z</time>
      </trkpt>
      <trkpt lat="45.17993" lon="6.38366">
        <ele>2627</ele>
        <time>2023-02-25T13:07:30.030Z</time>
      </trkpt>
      <trkpt lat="45.1801" lon="6.38383">
        <ele>2627</ele>
        <time>2023-02-25T13:07:33.072Z</time>
      </trkpt>
      <trkpt lat="45.18026" lon="6.38415">
        <ele>2626</ele>
        <time>2023-02-25T13:07:37.064Z</time>
      </trkpt>
      <trkpt lat="45.18043" lon="6.38455">
        <ele>2624</ele>
        <time>2023-02-25T13:07:42.083Z</time>
      </trkpt>
      <trkpt lat="45.18059" lon="6.38489">
        <ele>2621</ele>
        <time>2023-02-25T13:07:47.980Z</time>
      </trkpt>
      <trkpt lat="45.18077" lon="6.38509">
        <ele>2618</ele>
        <time>2023-02-25T13:07:52.998Z</time>
      </trkpt>
      <trkpt lat="45.18093" lon="6.38526">
        <ele>2615</ele>
        <time>2023-02-25T13:07:58.055Z</time>
      </trkpt>
      <trkpt lat="45.18105" lon="6.38542">
        <ele>2611</ele>
        <time>2023-02-25T13:08:03.070Z</time>
      </trkpt>
      <trkpt lat="45.18111" lon="6.38545">
        <ele>2601</ele>
        <time>2023-02-25T13:08:20.008Z</time>
      </trkpt>
      <trkpt lat="45.18111" lon="6.38545">
        <ele>2601</ele>
        <time>2023-02-25T13:08:45.057Z</time>
      </trkpt>
      <trkpt lat="45.18129" lon="6.38563">
        <ele>2595</ele>
        <time>2023-02-25T13:08:46.041Z</time>
      </trkpt>
      <trkpt lat="45.18129" lon="6.3858">
        <ele>2594</ele>
        <time>2023-02-25T13:08:52.063Z</time>
      </trkpt>
      <trkpt lat="45.18124" lon="6.38591">
        <ele>2593</ele>
        <time>2023-02-25T13:08:58.035Z</time>
      </trkpt>
      <trkpt lat="45.18126" lon="6.38604">
        <ele>2593</ele>
        <time>2023-02-25T13:09:01.083Z</time>
      </trkpt>
      <trkpt lat="45.18138" lon="6.38612">
        <ele>2592</ele>
        <time>2023-02-25T13:09:04.081Z</time>
      </trkpt>
      <trkpt lat="45.1814" lon="6.38609">
        <ele>2586</ele>
        <time>2023-02-25T13:09:20.009Z</time>
      </trkpt>
      <trkpt lat="45.1814" lon="6.38609">
        <ele>2586</ele>
        <time>2023-02-25T13:14:02.025Z</time>
      </trkpt>
      <trkpt lat="45.18164" lon="6.38607">
        <ele>2578</ele>
        <time>2023-02-25T13:14:03.051Z</time>
      </trkpt>
      <trkpt lat="45.18175" lon="6.38615">
        <ele>2577</ele>
        <time>2023-02-25T13:14:07.025Z</time>
      </trkpt>
      <trkpt lat="45.18188" lon="6.38604">
        <ele>2577</ele>
        <time>2023-02-25T13:14:11.057Z</time>
      </trkpt>
      <trkpt lat="45.182" lon="6.38618">
        <ele>2575</ele>
        <time>2023-02-25T13:14:16.044Z</time>
      </trkpt>
      <trkpt lat="45.18208" lon="6.38603">
        <ele>2574</ele>
        <time>2023-02-25T13:14:18.968Z</time>
      </trkpt>
      <trkpt lat="45.18221" lon="6.38613">
        <ele>2572</ele>
        <time>2023-02-25T13:14:22.998Z</time>
      </trkpt>
      <trkpt lat="45.18237" lon="6.38612">
        <ele>2570</ele>
        <time>2023-02-25T13:14:27.006Z</time>
      </trkpt>
      <trkpt lat="45.18238" lon="6.38618">
        <ele>2559</ele>
        <time>2023-02-25T13:14:42.036Z</time>
      </trkpt>
      <trkpt lat="45.18238" lon="6.38618">
        <ele>2559</ele>
        <time>2023-02-25T13:17:42.048Z</time>
      </trkpt>
      <trkpt lat="45.18258" lon="6.38631">
        <ele>2533</ele>
        <time>2023-02-25T13:17:43.030Z</time>
      </trkpt>
      <trkpt lat="45.18258" lon="6.38651">
        <ele>2532</ele>
        <time>2023-02-25T13:17:45.050Z</time>
      </trkpt>
      <trkpt lat="45.18259" lon="6.38668">
        <ele>2532</ele>
        <time>2023-02-25T13:17:47.027Z</time>
      </trkpt>
      <trkpt lat="45.18268" lon="6.38679">
        <ele>2529</ele>
        <time>2023-02-25T13:17:56.013Z</time>
      </trkpt>
      <trkpt lat="45.18272" lon="6.38666">
        <ele>2526</ele>
        <time>2023-02-25T13:18:01.989Z</time>
      </trkpt>
      <trkpt lat="45.18277" lon="6.38651">
        <ele>2525</ele>
        <time>2023-02-25T13:18:06.000Z</time>
      </trkpt>
      <trkpt lat="45.18284" lon="6.3864">
        <ele>2524</ele>
        <time>2023-02-25T13:18:07.990Z</time>
      </trkpt>
      <trkpt lat="45.18301" lon="6.38632">
        <ele>2521</ele>
        <time>2023-02-25T13:18:14.013Z</time>
      </trkpt>
      <trkpt lat="45.18316" lon="6.38625">
        <ele>2519</ele>
        <time>2023-02-25T13:18:16.975Z</time>
      </trkpt>
      <trkpt lat="45.18319" lon="6.38619">
        <ele>2512</ele>
        <time>2023-02-25T13:18:32.001Z</time>
      </trkpt>
      <trkpt lat="45.18319" lon="6.38619">
        <ele>2512</ele>
        <time>2023-02-25T13:19:03.991Z</time>
      </trkpt>
      <trkpt lat="45.18343" lon="6.38632">
        <ele>2505</ele>
        <time>2023-02-25T13:19:05.006Z</time>
      </trkpt>
      <trkpt lat="45.18352" lon="6.38639">
        <ele>2505</ele>
        <time>2023-02-25T13:19:06.993Z</time>
      </trkpt>
      <trkpt lat="45.18369" lon="6.38639">
        <ele>2503</ele>
        <time>2023-02-25T13:19:11.989Z</time>
      </trkpt>
      <trkpt lat="45.18383" lon="6.38646">
        <ele>2501</ele>
        <time>2023-02-25T13:19:17.997Z</time>
      </trkpt>
      <trkpt lat="45.18393" lon="6.38643">
        <ele>2497</ele>
        <time>2023-02-25T13:19:24.989Z</time>
      </trkpt>
      <trkpt lat="45.18399" lon="6.38631">
        <ele>2495</ele>
        <time>2023-02-25T13:19:28.973Z</time>
      </trkpt>
      <trkpt lat="45.18399" lon="6.3863">
        <ele>2487</ele>
        <time>2023-02-25T13:19:41.979Z</time>
      </trkpt>
      <trkpt lat="45.18399" lon="6.3863">
        <ele>2487</ele>
        <time>2023-02-25T13:19:59.980Z</time>
      </trkpt>
      <trkpt lat="45.18422" lon="6.38631">
        <ele>2477</ele>
        <time>2023-02-25T13:20:00.968Z</time>
      </trkpt>
      <trkpt lat="45.18425" lon="6.38645">
        <ele>2475</ele>
        <time>2023-02-25T13:20:05.979Z</time>
      </trkpt>
      <trkpt lat="45.18435" lon="6.38646">
        <ele>2474</ele>
        <time>2023-02-25T13:20:10.999Z</time>
      </trkpt>
      <trkpt lat="45.18447" lon="6.38647">
        <ele>2473</ele>
        <time>2023-02-25T13:20:13.973Z</time>
      </trkpt>
      <trkpt lat="45.18454" lon="6.3866">
        <ele>2471</ele>
        <time>2023-02-25T13:20:17.985Z</time>
      </trkpt>
      <trkpt lat="45.18467" lon="6.38661">
        <ele>2467</ele>
        <time>2023-02-25T13:20:24.977Z</time>
      </trkpt>
      <trkpt lat="45.18466" lon="6.38662">
        <ele>2460</ele>
        <time>2023-02-25T13:20:36.994Z</time>
      </trkpt>
      <trkpt lat="45.18466" lon="6.38662">
        <ele>2460</ele>
        <time>2023-02-25T13:20:47.008Z</time>
      </trkpt>
      <trkpt lat="45.18488" lon="6.38681">
        <ele>2455</ele>
        <time>2023-02-25T13:20:47.979Z</time>
      </trkpt>
      <trkpt lat="45.185" lon="6.38685">
        <ele>2451</ele>
        <time>2023-02-25T13:20:54.982Z</time>
      </trkpt>
      <trkpt lat="45.18509" lon="6.38686">
        <ele>2445</ele>
        <time>2023-02-25T13:21:06.002Z</time>
      </trkpt>
      <trkpt lat="45.18515" lon="6.38698">
        <ele>2442</ele>
        <time>2023-02-25T13:21:10.973Z</time>
      </trkpt>
      <trkpt lat="45.18519" lon="6.38711">
        <ele>2438</ele>
        <time>2023-02-25T13:21:18.021Z</time>
      </trkpt>
      <trkpt lat="45.18528" lon="6.38718">
        <ele>2437</ele>
        <time>2023-02-25T13:21:20.978Z</time>
      </trkpt>
      <trkpt lat="45.18537" lon="6.38713">
        <ele>2434</ele>
        <time>2023-02-25T13:21:26.016Z</time>
      </trkpt>
      <trkpt lat="45.18549" lon="6.38712">
        <ele>2432</ele>
        <time>2023-02-25T13:21:29.012Z</time>
      </trkpt>
      <trkpt lat="45.18558" lon="6.38727">
        <ele>2429</ele>
        <time>2023-02-25T13:21:32.974Z</time>
      </trkpt>
      <trkpt lat="45.1857" lon="6.38739">
        <ele>2428</ele>
        <time>2023-02-25T13:21:34.969Z</time>
      </trkpt>
      <trkpt lat="45.18582" lon="6.38757">
        <ele>2423</ele>
        <time>2023-02-25T13:21:42.004Z</time>
      </trkpt>
      <trkpt lat="45.18582" lon="6.38758">
        <ele>2416</ele>
        <time>2023-02-25T13:21:52.994Z</time>
      </trkpt>
      <trkpt lat="45.18582" lon="6.38758">
        <ele>2416</ele>
        <time>2023-02-25T13:25:07.016Z</time>
      </trkpt>
      <trkpt lat="45.18599" lon="6.38735">
        <ele>2402</ele>
        <time>2023-02-25T13:25:08.023Z</time>
      </trkpt>
      <trkpt lat="45.18609" lon="6.38735">
        <ele>2401</ele>
        <time>2023-02-25T13:25:13.024Z</time>
      </trkpt>
      <trkpt lat="45.18614" lon="6.38724">
        <ele>2399</ele>
        <time>2023-02-25T13:25:19.037Z</time>
      </trkpt>
      <trkpt lat="45.18613" lon="6.38709">
        <ele>2398</ele>
        <time>2023-02-25T13:25:21.983Z</time>
      </trkpt>
      <trkpt lat="45.1861" lon="6.38696">
        <ele>2396</ele>
        <time>2023-02-25T13:25:24.958Z</time>
      </trkpt>
      <trkpt lat="45.18608" lon="6.38679">
        <ele>2394</ele>
        <time>2023-02-25T13:25:27.962Z</time>
      </trkpt>
      <trkpt lat="45.18606" lon="6.38665">
        <ele>2390</ele>
        <time>2023-02-25T13:25:34.988Z</time>
      </trkpt>
      <trkpt lat="45.18607" lon="6.38649">
        <ele>2388</ele>
        <time>2023-02-25T13:25:37.972Z</time>
      </trkpt>
      <trkpt lat="45.18605" lon="6.38635">
        <ele>2386</ele>
        <time>2023-02-25T13:25:39.979Z</time>
      </trkpt>
      <trkpt lat="45.18613" lon="6.38624">
        <ele>2383</ele>
        <time>2023-02-25T13:25:45.045Z</time>
      </trkpt>
      <trkpt lat="45.18626" lon="6.38618">
        <ele>2381</ele>
        <time>2023-02-25T13:25:47.041Z</time>
      </trkpt>
      <trkpt lat="45.1864" lon="6.38612">
        <ele>2379</ele>
        <time>2023-02-25T13:25:50.051Z</time>
      </trkpt>
      <trkpt lat="45.1866" lon="6.38606">
        <ele>2376</ele>
        <time>2023-02-25T13:25:54.041Z</time>
      </trkpt>
      <trkpt lat="45.18682" lon="6.38601">
        <ele>2372</ele>
        <time>2023-02-25T13:25:59.980Z</time>
      </trkpt>
      <trkpt lat="45.18702" lon="6.38599">
        <ele>2368</ele>
        <time>2023-02-25T13:26:04.970Z</time>
      </trkpt>
      <trkpt lat="45.18715" lon="6.38594">
        <ele>2365</ele>
        <time>2023-02-25T13:26:11.011Z</time>
      </trkpt>
      <trkpt lat="45.18724" lon="6.3859">
        <ele>2362</ele>
        <time>2023-02-25T13:26:18.046Z</time>
      </trkpt>
      <trkpt lat="45.18733" lon="6.38592">
        <ele>2358</ele>
        <time>2023-02-25T13:26:31.068Z</time>
      </trkpt>
      <trkpt lat="45.18743" lon="6.3859">
        <ele>2357</ele>
        <time>2023-02-25T13:26:39.049Z</time>
      </trkpt>
      <trkpt lat="45.18752" lon="6.38594">
        <ele>2356</ele>
        <time>2023-02-25T13:26:45.067Z</time>
      </trkpt>
      <trkpt lat="45.18761" lon="6.38598">
        <ele>2356</ele>
        <time>2023-02-25T13:26:48.012Z</time>
      </trkpt>
      <trkpt lat="45.18773" lon="6.38603">
        <ele>2356</ele>
        <time>2023-02-25T13:26:51.061Z</time>
      </trkpt>
      <trkpt lat="45.18783" lon="6.38605">
        <ele>2356</ele>
        <time>2023-02-25T13:26:58.998Z</time>
      </trkpt>
      <trkpt lat="45.18782" lon="6.38604">
        <ele>2355</ele>
        <time>2023-02-25T13:27:08.987Z</time>
      </trkpt>
      <trkpt lat="45.18782" lon="6.38604">
        <ele>2355</ele>
        <time>2023-02-25T13:28:04.002Z</time>
      </trkpt>
      <trkpt lat="45.18785" lon="6.38637">
        <ele>2352</ele>
        <time>2023-02-25T13:28:05.040Z</time>
      </trkpt>
      <trkpt lat="45.18793" lon="6.38644">
        <ele>2352</ele>
        <time>2023-02-25T13:28:08.052Z</time>
      </trkpt>
      <trkpt lat="45.18794" lon="6.38642">
        <ele>2350</ele>
        <time>2023-02-25T13:28:23.056Z</time>
      </trkpt>
      <trkpt lat="45.18794" lon="6.38642">
        <ele>2350</ele>
        <time>2023-02-25T13:28:38.040Z</time>
      </trkpt>
      <trkpt lat="45.18819" lon="6.3863">
        <ele>2348</ele>
        <time>2023-02-25T13:28:39.061Z</time>
      </trkpt>
      <trkpt lat="45.18832" lon="6.38628">
        <ele>2348</ele>
        <time>2023-02-25T13:28:42.057Z</time>
      </trkpt>
      <trkpt lat="45.18849" lon="6.3862">
        <ele>2347</ele>
        <time>2023-02-25T13:28:46.060Z</time>
      </trkpt>
      <trkpt lat="45.18857" lon="6.38613">
        <ele>2344</ele>
        <time>2023-02-25T13:28:58.026Z</time>
      </trkpt>
      <trkpt lat="45.18863" lon="6.38602">
        <ele>2344</ele>
        <time>2023-02-25T13:29:00.990Z</time>
      </trkpt>
      <trkpt lat="45.18872" lon="6.38601">
        <ele>2343</ele>
        <time>2023-02-25T13:29:04.967Z</time>
      </trkpt>
      <trkpt lat="45.18877" lon="6.38588">
        <ele>2342</ele>
        <time>2023-02-25T13:29:06.999Z</time>
      </trkpt>
      <trkpt lat="45.18885" lon="6.38574">
        <ele>2342</ele>
        <time>2023-02-25T13:29:08.988Z</time>
      </trkpt>
      <trkpt lat="45.18906" lon="6.38566">
        <ele>2340</ele>
        <time>2023-02-25T13:29:13.070Z</time>
      </trkpt>
      <trkpt lat="45.18929" lon="6.3856">
        <ele>2339</ele>
        <time>2023-02-25T13:29:16.058Z</time>
      </trkpt>
      <trkpt lat="45.18963" lon="6.38551">
        <ele>2336</ele>
        <time>2023-02-25T13:29:20.042Z</time>
      </trkpt>
      <trkpt lat="45.18997" lon="6.38535">
        <ele>2333</ele>
        <time>2023-02-25T13:29:26.045Z</time>
      </trkpt>
      <trkpt lat="45.18999" lon="6.3852">
        <ele>2320</ele>
        <time>2023-02-25T13:29:49.066Z</time>
      </trkpt>
      <trkpt lat="45.18999" lon="6.3852">
        <ele>2320</ele>
        <time>2023-02-25T13:29:56.072Z</time>
      </trkpt>
      <trkpt lat="45.18987" lon="6.3849">
        <ele>2316</ele>
        <time>2023-02-25T13:29:57.047Z</time>
      </trkpt>
      <trkpt lat="45.18993" lon="6.38477">
        <ele>2311</ele>
        <time>2023-02-25T13:30:12.002Z</time>
      </trkpt>
      <trkpt lat="45.19002" lon="6.38477">
        <ele>2311</ele>
        <time>2023-02-25T13:30:15.979Z</time>
      </trkpt>
      <trkpt lat="45.19003" lon="6.38479">
        <ele>2308</ele>
        <time>2023-02-25T13:30:30.047Z</time>
      </trkpt>
      <trkpt lat="45.19003" lon="6.38479">
        <ele>2308</ele>
        <time>2023-02-25T13:38:07.056Z</time>
      </trkpt>
      <trkpt lat="45.19026" lon="6.38468">
        <ele>2297</ele>
        <time>2023-02-25T13:38:08.058Z</time>
      </trkpt>
      <trkpt lat="45.19035" lon="6.38462">
        <ele>2299</ele>
        <time>2023-02-25T13:38:24.029Z</time>
      </trkpt>
      <trkpt lat="45.19043" lon="6.38455">
        <ele>2301</ele>
        <time>2023-02-25T13:38:43.051Z</time>
      </trkpt>
      <trkpt lat="45.1905" lon="6.38446">
        <ele>2303</ele>
        <time>2023-02-25T13:38:57.051Z</time>
      </trkpt>
      <trkpt lat="45.19058" lon="6.3844">
        <ele>2306</ele>
        <time>2023-02-25T13:39:13.078Z</time>
      </trkpt>
      <trkpt lat="45.19066" lon="6.38433">
        <ele>2308</ele>
        <time>2023-02-25T13:39:32.966Z</time>
      </trkpt>
      <trkpt lat="45.19072" lon="6.38427">
        <ele>2310</ele>
        <time>2023-02-25T13:39:51.056Z</time>
      </trkpt>
      <trkpt lat="45.19072" lon="6.38427">
        <ele>2310</ele>
        <time>2023-02-25T13:40:44.988Z</time>
      </trkpt>
      <trkpt lat="45.19095" lon="6.38424">
        <ele>2321</ele>
        <time>2023-02-25T13:40:46.043Z</time>
      </trkpt>
      <trkpt lat="45.19103" lon="6.38427">
        <ele>2323</ele>
        <time>2023-02-25T13:41:10.046Z</time>
      </trkpt>
      <trkpt lat="45.19103" lon="6.38427">
        <ele>2323</ele>
        <time>2023-02-25T13:41:50.012Z</time>
      </trkpt>
      <trkpt lat="45.19124" lon="6.3844">
        <ele>2326</ele>
        <time>2023-02-25T13:41:51.041Z</time>
      </trkpt>
      <trkpt lat="45.19133" lon="6.38444">
        <ele>2328</ele>
        <time>2023-02-25T13:42:06.018Z</time>
      </trkpt>
      <trkpt lat="45.19142" lon="6.38447">
        <ele>2329</ele>
        <time>2023-02-25T13:42:19.058Z</time>
      </trkpt>
      <trkpt lat="45.19152" lon="6.38449">
        <ele>2331</ele>
        <time>2023-02-25T13:42:33.072Z</time>
      </trkpt>
      <trkpt lat="45.19161" lon="6.3845">
        <ele>2333</ele>
        <time>2023-02-25T13:42:45.042Z</time>
      </trkpt>
      <trkpt lat="45.19171" lon="6.38451">
        <ele>2334</ele>
        <time>2023-02-25T13:42:56.050Z</time>
      </trkpt>
      <trkpt lat="45.1918" lon="6.38452">
        <ele>2336</ele>
        <time>2023-02-25T13:43:11.021Z</time>
      </trkpt>
      <trkpt lat="45.19189" lon="6.38455">
        <ele>2338</ele>
        <time>2023-02-25T13:43:26.992Z</time>
      </trkpt>
      <trkpt lat="45.19198" lon="6.38456">
        <ele>2339</ele>
        <time>2023-02-25T13:43:41.037Z</time>
      </trkpt>
      <trkpt lat="45.19208" lon="6.38457">
        <ele>2340</ele>
        <time>2023-02-25T13:43:59.037Z</time>
      </trkpt>
      <trkpt lat="45.19217" lon="6.38454">
        <ele>2341</ele>
        <time>2023-02-25T13:44:11.041Z</time>
      </trkpt>
      <trkpt lat="45.19226" lon="6.38453">
        <ele>2341</ele>
        <time>2023-02-25T13:44:20.006Z</time>
      </trkpt>
      <trkpt lat="45.19236" lon="6.38452">
        <ele>2342</ele>
        <time>2023-02-25T13:44:31.036Z</time>
      </trkpt>
      <trkpt lat="45.19245" lon="6.38453">
        <ele>2343</ele>
        <time>2023-02-25T13:44:42.032Z</time>
      </trkpt>
      <trkpt lat="45.19254" lon="6.38454">
        <ele>2344</ele>
        <time>2023-02-25T13:44:55.021Z</time>
      </trkpt>
      <trkpt lat="45.19263" lon="6.38453">
        <ele>2345</ele>
        <time>2023-02-25T13:45:07.023Z</time>
      </trkpt>
      <trkpt lat="45.19273" lon="6.38453">
        <ele>2346</ele>
        <time>2023-02-25T13:45:18.062Z</time>
      </trkpt>
      <trkpt lat="45.19282" lon="6.38453">
        <ele>2348</ele>
        <time>2023-02-25T13:45:31.026Z</time>
      </trkpt>
      <trkpt lat="45.19291" lon="6.38452">
        <ele>2349</ele>
        <time>2023-02-25T13:45:43.040Z</time>
      </trkpt>
      <trkpt lat="45.19301" lon="6.38451">
        <ele>2351</ele>
        <time>2023-02-25T13:45:58.020Z</time>
      </trkpt>
      <trkpt lat="45.1931" lon="6.38449">
        <ele>2351</ele>
        <time>2023-02-25T13:46:10.042Z</time>
      </trkpt>
      <trkpt lat="45.19319" lon="6.38445">
        <ele>2352</ele>
        <time>2023-02-25T13:46:19.998Z</time>
      </trkpt>
      <trkpt lat="45.19328" lon="6.38443">
        <ele>2352</ele>
        <time>2023-02-25T13:46:30.987Z</time>
      </trkpt>
      <trkpt lat="45.19337" lon="6.38443">
        <ele>2352</ele>
        <time>2023-02-25T13:46:41.993Z</time>
      </trkpt>
      <trkpt lat="45.19347" lon="6.3844">
        <ele>2352</ele>
        <time>2023-02-25T13:46:55.995Z</time>
      </trkpt>
      <trkpt lat="45.19356" lon="6.38439">
        <ele>2352</ele>
        <time>2023-02-25T13:47:08.000Z</time>
      </trkpt>
      <trkpt lat="45.19365" lon="6.38438">
        <ele>2352</ele>
        <time>2023-02-25T13:47:17.998Z</time>
      </trkpt>
      <trkpt lat="45.19375" lon="6.38438">
        <ele>2353</ele>
        <time>2023-02-25T13:47:30.989Z</time>
      </trkpt>
      <trkpt lat="45.19384" lon="6.38436">
        <ele>2354</ele>
        <time>2023-02-25T13:47:42.006Z</time>
      </trkpt>
      <trkpt lat="45.19393" lon="6.38434">
        <ele>2354</ele>
        <time>2023-02-25T13:47:54.991Z</time>
      </trkpt>
      <trkpt lat="45.19402" lon="6.38436">
        <ele>2354</ele>
        <time>2023-02-25T13:48:07.014Z</time>
      </trkpt>
      <trkpt lat="45.19411" lon="6.38438">
        <ele>2355</ele>
        <time>2023-02-25T13:48:20.015Z</time>
      </trkpt>
      <trkpt lat="45.19421" lon="6.3844">
        <ele>2356</ele>
        <time>2023-02-25T13:48:31.011Z</time>
      </trkpt>
      <trkpt lat="45.1943" lon="6.3844">
        <ele>2358</ele>
        <time>2023-02-25T13:48:44.000Z</time>
      </trkpt>
      <trkpt lat="45.19439" lon="6.38438">
        <ele>2360</ele>
        <time>2023-02-25T13:48:58.988Z</time>
      </trkpt>
      <trkpt lat="45.19449" lon="6.38433">
        <ele>2361</ele>
        <time>2023-02-25T13:49:14.997Z</time>
      </trkpt>
      <trkpt lat="45.19458" lon="6.38429">
        <ele>2362</ele>
        <time>2023-02-25T13:49:26.997Z</time>
      </trkpt>
      <trkpt lat="45.19468" lon="6.38427">
        <ele>2362</ele>
        <time>2023-02-25T13:49:39.011Z</time>
      </trkpt>
      <trkpt lat="45.19478" lon="6.38425">
        <ele>2362</ele>
        <time>2023-02-25T13:49:50.046Z</time>
      </trkpt>
      <trkpt lat="45.19481" lon="6.38421">
        <ele>2363</ele>
        <time>2023-02-25T13:50:07.001Z</time>
      </trkpt>
      <trkpt lat="45.19481" lon="6.38421">
        <ele>2363</ele>
        <time>2023-02-25T13:50:46.990Z</time>
      </trkpt>
      <trkpt lat="45.19504" lon="6.38416">
        <ele>2364</ele>
        <time>2023-02-25T13:50:48.039Z</time>
      </trkpt>
      <trkpt lat="45.19513" lon="6.38415">
        <ele>2364</ele>
        <time>2023-02-25T13:51:02.004Z</time>
      </trkpt>
      <trkpt lat="45.19522" lon="6.38412">
        <ele>2365</ele>
        <time>2023-02-25T13:51:15.984Z</time>
      </trkpt>
      <trkpt lat="45.19531" lon="6.38408">
        <ele>2365</ele>
        <time>2023-02-25T13:51:29.029Z</time>
      </trkpt>
      <trkpt lat="45.1954" lon="6.38404">
        <ele>2366</ele>
        <time>2023-02-25T13:51:39.006Z</time>
      </trkpt>
      <trkpt lat="45.1955" lon="6.38403">
        <ele>2367</ele>
        <time>2023-02-25T13:51:49.983Z</time>
      </trkpt>
      <trkpt lat="45.19559" lon="6.384">
        <ele>2368</ele>
        <time>2023-02-25T13:51:59.983Z</time>
      </trkpt>
      <trkpt lat="45.19567" lon="6.38395">
        <ele>2368</ele>
        <time>2023-02-25T13:52:14.036Z</time>
      </trkpt>
      <trkpt lat="45.19576" lon="6.38389">
        <ele>2368</ele>
        <time>2023-02-25T13:52:27.985Z</time>
      </trkpt>
      <trkpt lat="45.19585" lon="6.38386">
        <ele>2368</ele>
        <time>2023-02-25T13:52:38.061Z</time>
      </trkpt>
      <trkpt lat="45.19594" lon="6.38383">
        <ele>2369</ele>
        <time>2023-02-25T13:52:51.050Z</time>
      </trkpt>
      <trkpt lat="45.19603" lon="6.38378">
        <ele>2369</ele>
        <time>2023-02-25T13:53:09.027Z</time>
      </trkpt>
      <trkpt lat="45.19612" lon="6.38373">
        <ele>2369</ele>
        <time>2023-02-25T13:53:21.989Z</time>
      </trkpt>
      <trkpt lat="45.19621" lon="6.38372">
        <ele>2369</ele>
        <time>2023-02-25T13:53:34.039Z</time>
      </trkpt>
      <trkpt lat="45.19631" lon="6.3837">
        <ele>2369</ele>
        <time>2023-02-25T13:53:44.063Z</time>
      </trkpt>
      <trkpt lat="45.1964" lon="6.38371">
        <ele>2369</ele>
        <time>2023-02-25T13:53:53.999Z</time>
      </trkpt>
      <trkpt lat="45.1965" lon="6.38373">
        <ele>2369</ele>
        <time>2023-02-25T13:54:05.041Z</time>
      </trkpt>
      <trkpt lat="45.19659" lon="6.38379">
        <ele>2370</ele>
        <time>2023-02-25T13:54:16.039Z</time>
      </trkpt>
      <trkpt lat="45.19668" lon="6.38384">
        <ele>2371</ele>
        <time>2023-02-25T13:54:27.047Z</time>
      </trkpt>
      <trkpt lat="45.19677" lon="6.3839">
        <ele>2373</ele>
        <time>2023-02-25T13:54:39.065Z</time>
      </trkpt>
      <trkpt lat="45.19687" lon="6.38392">
        <ele>2374</ele>
        <time>2023-02-25T13:54:51.050Z</time>
      </trkpt>
      <trkpt lat="45.19695" lon="6.38397">
        <ele>2375</ele>
        <time>2023-02-25T13:55:02.029Z</time>
      </trkpt>
      <trkpt lat="45.19705" lon="6.38401">
        <ele>2375</ele>
        <time>2023-02-25T13:55:17.054Z</time>
      </trkpt>
      <trkpt lat="45.19713" lon="6.38408">
        <ele>2375</ele>
        <time>2023-02-25T13:55:30.053Z</time>
      </trkpt>
      <trkpt lat="45.1972" lon="6.38416">
        <ele>2375</ele>
        <time>2023-02-25T13:55:43.043Z</time>
      </trkpt>
      <trkpt lat="45.19728" lon="6.38424">
        <ele>2376</ele>
        <time>2023-02-25T13:55:57.019Z</time>
      </trkpt>
      <trkpt lat="45.19736" lon="6.38432">
        <ele>2376</ele>
        <time>2023-02-25T13:56:11.976Z</time>
      </trkpt>
      <trkpt lat="45.19743" lon="6.3844">
        <ele>2377</ele>
        <time>2023-02-25T13:56:23.986Z</time>
      </trkpt>
      <trkpt lat="45.19751" lon="6.38448">
        <ele>2378</ele>
        <time>2023-02-25T13:56:38.982Z</time>
      </trkpt>
      <trkpt lat="45.19758" lon="6.38457">
        <ele>2379</ele>
        <time>2023-02-25T13:56:51.051Z</time>
      </trkpt>
      <trkpt lat="45.19764" lon="6.38466">
        <ele>2380</ele>
        <time>2023-02-25T13:57:05.059Z</time>
      </trkpt>
      <trkpt lat="45.19769" lon="6.38477">
        <ele>2381</ele>
        <time>2023-02-25T13:57:15.994Z</time>
      </trkpt>
      <trkpt lat="45.19775" lon="6.38487">
        <ele>2382</ele>
        <time>2023-02-25T13:57:34.089Z</time>
      </trkpt>
      <trkpt lat="45.19779" lon="6.38499">
        <ele>2382</ele>
        <time>2023-02-25T13:57:45.064Z</time>
      </trkpt>
      <trkpt lat="45.19784" lon="6.38512">
        <ele>2383</ele>
        <time>2023-02-25T13:57:59.062Z</time>
      </trkpt>
      <trkpt lat="45.19788" lon="6.38523">
        <ele>2384</ele>
        <time>2023-02-25T13:58:15.038Z</time>
      </trkpt>
      <trkpt lat="45.19794" lon="6.38532">
        <ele>2385</ele>
        <time>2023-02-25T13:58:29.048Z</time>
      </trkpt>
      <trkpt lat="45.198" lon="6.38543">
        <ele>2386</ele>
        <time>2023-02-25T13:58:43.049Z</time>
      </trkpt>
      <trkpt lat="45.19804" lon="6.38554">
        <ele>2387</ele>
        <time>2023-02-25T13:58:58.981Z</time>
      </trkpt>
      <trkpt lat="45.19809" lon="6.38565">
        <ele>2387</ele>
        <time>2023-02-25T13:59:13.994Z</time>
      </trkpt>
      <trkpt lat="45.19814" lon="6.38576">
        <ele>2386</ele>
        <time>2023-02-25T13:59:29.047Z</time>
      </trkpt>
      <trkpt lat="45.1982" lon="6.38588">
        <ele>2386</ele>
        <time>2023-02-25T13:59:40.016Z</time>
      </trkpt>
      <trkpt lat="45.19823" lon="6.386">
        <ele>2386</ele>
        <time>2023-02-25T13:59:53.062Z</time>
      </trkpt>
      <trkpt lat="45.19827" lon="6.38612">
        <ele>2388</ele>
        <time>2023-02-25T14:00:07.036Z</time>
      </trkpt>
      <trkpt lat="45.19832" lon="6.38624">
        <ele>2391</ele>
        <time>2023-02-25T14:00:23.052Z</time>
      </trkpt>
      <trkpt lat="45.19836" lon="6.38636">
        <ele>2394</ele>
        <time>2023-02-25T14:00:38.064Z</time>
      </trkpt>
      <trkpt lat="45.19842" lon="6.38647">
        <ele>2395</ele>
        <time>2023-02-25T14:00:50.065Z</time>
      </trkpt>
      <trkpt lat="45.19847" lon="6.38658">
        <ele>2396</ele>
        <time>2023-02-25T14:01:00.069Z</time>
      </trkpt>
      <trkpt lat="45.19851" lon="6.38669">
        <ele>2396</ele>
        <time>2023-02-25T14:01:10.049Z</time>
      </trkpt>
      <trkpt lat="45.19855" lon="6.38681">
        <ele>2397</ele>
        <time>2023-02-25T14:01:22.044Z</time>
      </trkpt>
      <trkpt lat="45.19858" lon="6.38683">
        <ele>2399</ele>
        <time>2023-02-25T14:01:36.062Z</time>
      </trkpt>
      <trkpt lat="45.19858" lon="6.38683">
        <ele>2399</ele>
        <time>2023-02-25T14:02:27.048Z</time>
      </trkpt>
      <trkpt lat="45.19873" lon="6.38708">
        <ele>2401</ele>
        <time>2023-02-25T14:02:28.041Z</time>
      </trkpt>
      <trkpt lat="45.19878" lon="6.38712">
        <ele>2402</ele>
        <time>2023-02-25T14:02:48.046Z</time>
      </trkpt>
      <trkpt lat="45.19878" lon="6.38712">
        <ele>2402</ele>
        <time>2023-02-25T14:11:01.030Z</time>
      </trkpt>
      <trkpt lat="45.19854" lon="6.38726">
        <ele>2404</ele>
        <time>2023-02-25T14:11:02.004Z</time>
      </trkpt>
      <trkpt lat="45.19849" lon="6.3874">
        <ele>2403</ele>
        <time>2023-02-25T14:11:04.031Z</time>
      </trkpt>
      <trkpt lat="45.19844" lon="6.38761">
        <ele>2403</ele>
        <time>2023-02-25T14:11:07.045Z</time>
      </trkpt>
      <trkpt lat="45.1983" lon="6.38787">
        <ele>2401</ele>
        <time>2023-02-25T14:11:11.048Z</time>
      </trkpt>
      <trkpt lat="45.19827" lon="6.38824">
        <ele>2400</ele>
        <time>2023-02-25T14:11:15.042Z</time>
      </trkpt>
      <trkpt lat="45.19824" lon="6.38869">
        <ele>2398</ele>
        <time>2023-02-25T14:11:20.072Z</time>
      </trkpt>
      <trkpt lat="45.19827" lon="6.38914">
        <ele>2395</ele>
        <time>2023-02-25T14:11:24.042Z</time>
      </trkpt>
      <trkpt lat="45.19829" lon="6.3897">
        <ele>2392</ele>
        <time>2023-02-25T14:11:28.056Z</time>
      </trkpt>
      <trkpt lat="45.19843" lon="6.39024">
        <ele>2385</ele>
        <time>2023-02-25T14:11:34.039Z</time>
      </trkpt>
      <trkpt lat="45.19852" lon="6.39067">
        <ele>2378</ele>
        <time>2023-02-25T14:11:40.056Z</time>
      </trkpt>
      <trkpt lat="45.19857" lon="6.39104">
        <ele>2374</ele>
        <time>2023-02-25T14:11:43.017Z</time>
      </trkpt>
      <trkpt lat="45.19859" lon="6.39155">
        <ele>2367</ele>
        <time>2023-02-25T14:11:48.055Z</time>
      </trkpt>
      <trkpt lat="45.19858" lon="6.392">
        <ele>2360</ele>
        <time>2023-02-25T14:11:52.984Z</time>
      </trkpt>
      <trkpt lat="45.19854" lon="6.39248">
        <ele>2353</ele>
        <time>2023-02-25T14:11:57.015Z</time>
      </trkpt>
      <trkpt lat="45.19853" lon="6.39303">
        <ele>2344</ele>
        <time>2023-02-25T14:12:01.989Z</time>
      </trkpt>
      <trkpt lat="45.19859" lon="6.39362">
        <ele>2334</ele>
        <time>2023-02-25T14:12:07.060Z</time>
      </trkpt>
      <trkpt lat="45.19861" lon="6.39424">
        <ele>2323</ele>
        <time>2023-02-25T14:12:12.008Z</time>
      </trkpt>
      <trkpt lat="45.19861" lon="6.39487">
        <ele>2312</ele>
        <time>2023-02-25T14:12:17.037Z</time>
      </trkpt>
      <trkpt lat="45.19865" lon="6.39555">
        <ele>2301</ele>
        <time>2023-02-25T14:12:22.004Z</time>
      </trkpt>
      <trkpt lat="45.19886" lon="6.39611">
        <ele>2284</ele>
        <time>2023-02-25T14:12:28.988Z</time>
      </trkpt>
      <trkpt lat="45.19887" lon="6.39658">
        <ele>2272</ele>
        <time>2023-02-25T14:12:34.000Z</time>
      </trkpt>
      <trkpt lat="45.19891" lon="6.39691">
        <ele>2251</ele>
        <time>2023-02-25T14:12:42.990Z</time>
      </trkpt>
      <trkpt lat="45.19892" lon="6.39694">
        <ele>2234</ele>
        <time>2023-02-25T14:12:53.000Z</time>
      </trkpt>
      <trkpt lat="45.19892" lon="6.39694">
        <ele>2234</ele>
        <time>2023-02-25T14:13:02.009Z</time>
      </trkpt>
      <trkpt lat="45.19892" lon="6.39726">
        <ele>2223</ele>
        <time>2023-02-25T14:13:03.039Z</time>
      </trkpt>
      <trkpt lat="45.19896" lon="6.39738">
        <ele>2222</ele>
        <time>2023-02-25T14:13:04.005Z</time>
      </trkpt>
      <trkpt lat="45.19901" lon="6.39748">
        <ele>2221</ele>
        <time>2023-02-25T14:13:05.048Z</time>
      </trkpt>
      <trkpt lat="45.19908" lon="6.39772">
        <ele>2219</ele>
        <time>2023-02-25T14:13:07.054Z</time>
      </trkpt>
      <trkpt lat="45.19917" lon="6.39814">
        <ele>2216</ele>
        <time>2023-02-25T14:13:09.997Z</time>
      </trkpt>
      <trkpt lat="45.19939" lon="6.39865">
        <ele>2212</ele>
        <time>2023-02-25T14:13:14.055Z</time>
      </trkpt>
      <trkpt lat="45.19964" lon="6.39917">
        <ele>2206</ele>
        <time>2023-02-25T14:13:20.064Z</time>
      </trkpt>
      <trkpt lat="45.19988" lon="6.39956">
        <ele>2200</ele>
        <time>2023-02-25T14:13:25.007Z</time>
      </trkpt>
      <trkpt lat="45.20006" lon="6.39997">
        <ele>2195</ele>
        <time>2023-02-25T14:13:29.027Z</time>
      </trkpt>
      <trkpt lat="45.20029" lon="6.40052">
        <ele>2189</ele>
        <time>2023-02-25T14:13:33.035Z</time>
      </trkpt>
      <trkpt lat="45.20066" lon="6.40091">
        <ele>2179</ele>
        <time>2023-02-25T14:13:39.006Z</time>
      </trkpt>
      <trkpt lat="45.20084" lon="6.40102">
        <ele>2163</ele>
        <time>2023-02-25T14:13:47.991Z</time>
      </trkpt>
      <trkpt lat="45.20092" lon="6.40109">
        <ele>2148</ele>
        <time>2023-02-25T14:13:57.977Z</time>
      </trkpt>
      <trkpt lat="45.20101" lon="6.40114">
        <ele>2143</ele>
        <time>2023-02-25T14:14:03.014Z</time>
      </trkpt>
      <trkpt lat="45.20111" lon="6.40121">
        <ele>2140</ele>
        <time>2023-02-25T14:14:06.030Z</time>
      </trkpt>
      <trkpt lat="45.20114" lon="6.40134">
        <ele>2139</ele>
        <time>2023-02-25T14:14:07.986Z</time>
      </trkpt>
      <trkpt lat="45.20122" lon="6.40152">
        <ele>2137</ele>
        <time>2023-02-25T14:14:09.970Z</time>
      </trkpt>
      <trkpt lat="45.20131" lon="6.40181">
        <ele>2135</ele>
        <time>2023-02-25T14:14:12.988Z</time>
      </trkpt>
      <trkpt lat="45.20141" lon="6.40223">
        <ele>2132</ele>
        <time>2023-02-25T14:14:16.964Z</time>
      </trkpt>
      <trkpt lat="45.20146" lon="6.40271">
        <ele>2127</ele>
        <time>2023-02-25T14:14:24.011Z</time>
      </trkpt>
      <trkpt lat="45.20142" lon="6.40274">
        <ele>2116</ele>
        <time>2023-02-25T14:14:37.998Z</time>
      </trkpt>
      <trkpt lat="45.20142" lon="6.40274">
        <ele>2116</ele>
        <time>2023-02-25T14:15:11.040Z</time>
      </trkpt>
      <trkpt lat="45.20142" lon="6.40312">
        <ele>2096</ele>
        <time>2023-02-25T14:15:12.024Z</time>
      </trkpt>
      <trkpt lat="45.20143" lon="6.40331">
        <ele>2096</ele>
        <time>2023-02-25T14:15:14.008Z</time>
      </trkpt>
      <trkpt lat="45.20142" lon="6.40359">
        <ele>2095</ele>
        <time>2023-02-25T14:15:17.048Z</time>
      </trkpt>
      <trkpt lat="45.20138" lon="6.40397">
        <ele>2094</ele>
        <time>2023-02-25T14:15:19.979Z</time>
      </trkpt>
      <trkpt lat="45.20132" lon="6.40417">
        <ele>2088</ele>
        <time>2023-02-25T14:15:29.998Z</time>
      </trkpt>
      <trkpt lat="45.20123" lon="6.40415">
        <ele>2079</ele>
        <time>2023-02-25T14:15:43.032Z</time>
      </trkpt>
      <trkpt lat="45.20115" lon="6.40419">
        <ele>2066</ele>
        <time>2023-02-25T14:16:03.017Z</time>
      </trkpt>
      <trkpt lat="45.20115" lon="6.40419">
        <ele>2066</ele>
        <time>2023-02-25T14:16:21.977Z</time>
      </trkpt>
      <trkpt lat="45.20135" lon="6.40435">
        <ele>2063</ele>
        <time>2023-02-25T14:16:23.028Z</time>
      </trkpt>
      <trkpt lat="45.20142" lon="6.40445">
        <ele>2063</ele>
        <time>2023-02-25T14:16:25.959Z</time>
      </trkpt>
      <trkpt lat="45.20152" lon="6.40462">
        <ele>2062</ele>
        <time>2023-02-25T14:16:28.994Z</time>
      </trkpt>
      <trkpt lat="45.20158" lon="6.40486">
        <ele>2062</ele>
        <time>2023-02-25T14:16:32.976Z</time>
      </trkpt>
      <trkpt lat="45.20156" lon="6.40507">
        <ele>2060</ele>
        <time>2023-02-25T14:16:40.007Z</time>
      </trkpt>
      <trkpt lat="45.20152" lon="6.40529">
        <ele>2059</ele>
        <time>2023-02-25T14:16:45.045Z</time>
      </trkpt>
      <trkpt lat="45.20149" lon="6.4055">
        <ele>2057</ele>
        <time>2023-02-25T14:16:50.038Z</time>
      </trkpt>
      <trkpt lat="45.20147" lon="6.40568">
        <ele>2055</ele>
        <time>2023-02-25T14:16:53.032Z</time>
      </trkpt>
      <trkpt lat="45.20144" lon="6.40592">
        <ele>2053</ele>
        <time>2023-02-25T14:16:57.037Z</time>
      </trkpt>
      <trkpt lat="45.20146" lon="6.40618">
        <ele>2049</ele>
        <time>2023-02-25T14:17:02.037Z</time>
      </trkpt>
      <trkpt lat="45.2014" lon="6.40644">
        <ele>2044</ele>
        <time>2023-02-25T14:17:07.026Z</time>
      </trkpt>
      <trkpt lat="45.2014" lon="6.40666">
        <ele>2039</ele>
        <time>2023-02-25T14:17:11.011Z</time>
      </trkpt>
      <trkpt lat="45.20138" lon="6.40682">
        <ele>2029</ele>
        <time>2023-02-25T14:17:19.001Z</time>
      </trkpt>
      <trkpt lat="45.20135" lon="6.40696">
        <ele>2025</ele>
        <time>2023-02-25T14:17:22.043Z</time>
      </trkpt>
      <trkpt lat="45.20136" lon="6.40716">
        <ele>2021</ele>
        <time>2023-02-25T14:17:25.027Z</time>
      </trkpt>
      <trkpt lat="45.2013" lon="6.40739">
        <ele>2016</ele>
        <time>2023-02-25T14:17:28.986Z</time>
      </trkpt>
      <trkpt lat="45.20121" lon="6.40761">
        <ele>2009</ele>
        <time>2023-02-25T14:17:34.011Z</time>
      </trkpt>
      <trkpt lat="45.20119" lon="6.40766">
        <ele>1992</ele>
        <time>2023-02-25T14:17:47.018Z</time>
      </trkpt>
      <trkpt lat="45.20119" lon="6.40766">
        <ele>1992</ele>
        <time>2023-02-25T14:17:53.028Z</time>
      </trkpt>
      <trkpt lat="45.20113" lon="6.40799">
        <ele>1985</ele>
        <time>2023-02-25T14:17:54.022Z</time>
      </trkpt>
      <trkpt lat="45.20104" lon="6.4081">
        <ele>1983</ele>
        <time>2023-02-25T14:17:56.987Z</time>
      </trkpt>
      <trkpt lat="45.20095" lon="6.40826">
        <ele>1979</ele>
        <time>2023-02-25T14:18:01.036Z</time>
      </trkpt>
      <trkpt lat="45.20075" lon="6.40844">
        <ele>1975</ele>
        <time>2023-02-25T14:18:05.001Z</time>
      </trkpt>
      <trkpt lat="45.20058" lon="6.40857">
        <ele>1973</ele>
        <time>2023-02-25T14:18:06.995Z</time>
      </trkpt>
      <trkpt lat="45.20026" lon="6.4087">
        <ele>1969</ele>
        <time>2023-02-25T14:18:10.998Z</time>
      </trkpt>
      <trkpt lat="45.20012" lon="6.40871">
        <ele>1959</ele>
        <time>2023-02-25T14:18:21.030Z</time>
      </trkpt>
      <trkpt lat="45.20011" lon="6.40871">
        <ele>1952</ele>
        <time>2023-02-25T14:18:29.022Z</time>
      </trkpt>
      <trkpt lat="45.20011" lon="6.40871">
        <ele>1952</ele>
        <time>2023-02-25T14:19:31.016Z</time>
      </trkpt>
      <trkpt lat="45.19991" lon="6.40855">
        <ele>1937</ele>
        <time>2023-02-25T14:19:31.995Z</time>
      </trkpt>
      <trkpt lat="45.19982" lon="6.40845">
        <ele>1936</ele>
        <time>2023-02-25T14:19:43.000Z</time>
      </trkpt>
      <trkpt lat="45.19973" lon="6.40836">
        <ele>1936</ele>
        <time>2023-02-25T14:19:46.981Z</time>
      </trkpt>
      <trkpt lat="45.19964" lon="6.40829">
        <ele>1935</ele>
        <time>2023-02-25T14:19:50.993Z</time>
      </trkpt>
      <trkpt lat="45.19962" lon="6.40827">
        <ele>1933</ele>
        <time>2023-02-25T14:20:07.005Z</time>
      </trkpt>
      <trkpt lat="45.19962" lon="6.40827">
        <ele>1933</ele>
        <time>2023-02-25T14:20:45.015Z</time>
      </trkpt>
      <trkpt lat="45.19941" lon="6.40811">
        <ele>1930</ele>
        <time>2023-02-25T14:20:46.027Z</time>
      </trkpt>
      <trkpt lat="45.19932" lon="6.40803">
        <ele>1930</ele>
        <time>2023-02-25T14:20:49.023Z</time>
      </trkpt>
      <trkpt lat="45.19923" lon="6.40793">
        <ele>1929</ele>
        <time>2023-02-25T14:20:51.994Z</time>
      </trkpt>
      <trkpt lat="45.19914" lon="6.40786">
        <ele>1929</ele>
        <time>2023-02-25T14:20:57.048Z</time>
      </trkpt>
      <trkpt lat="45.19903" lon="6.40784">
        <ele>1928</ele>
        <time>2023-02-25T14:21:01.020Z</time>
      </trkpt>
      <trkpt lat="45.19892" lon="6.40782">
        <ele>1927</ele>
        <time>2023-02-25T14:21:05.064Z</time>
      </trkpt>
      <trkpt lat="45.19881" lon="6.4078">
        <ele>1926</ele>
        <time>2023-02-25T14:21:09.007Z</time>
      </trkpt>
      <trkpt lat="45.19869" lon="6.40777">
        <ele>1926</ele>
        <time>2023-02-25T14:21:13.014Z</time>
      </trkpt>
      <trkpt lat="45.19859" lon="6.40775">
        <ele>1924</ele>
        <time>2023-02-25T14:21:18.032Z</time>
      </trkpt>
      <trkpt lat="45.19849" lon="6.40771">
        <ele>1923</ele>
        <time>2023-02-25T14:21:22.029Z</time>
      </trkpt>
      <trkpt lat="45.19839" lon="6.40768">
        <ele>1922</ele>
        <time>2023-02-25T14:21:26.007Z</time>
      </trkpt>
      <trkpt lat="45.19828" lon="6.40764">
        <ele>1921</ele>
        <time>2023-02-25T14:21:30.020Z</time>
      </trkpt>
      <trkpt lat="45.19834" lon="6.40779">
        <ele>1918</ele>
        <time>2023-02-25T14:21:41.034Z</time>
      </trkpt>
      <trkpt lat="45.19844" lon="6.40793">
        <ele>1917</ele>
        <time>2023-02-25T14:21:43.036Z</time>
      </trkpt>
      <trkpt lat="45.19853" lon="6.40806">
        <ele>1917</ele>
        <time>2023-02-25T14:21:44.998Z</time>
      </trkpt>
      <trkpt lat="45.19869" lon="6.40832">
        <ele>1915</ele>
        <time>2023-02-25T14:21:50.049Z</time>
      </trkpt>
      <trkpt lat="45.19882" lon="6.40859">
        <ele>1914</ele>
        <time>2023-02-25T14:21:55.042Z</time>
      </trkpt>
      <trkpt lat="45.19893" lon="6.40886">
        <ele>1913</ele>
        <time>2023-02-25T14:22:00.044Z</time>
      </trkpt>
      <trkpt lat="45.19901" lon="6.40911">
        <ele>1912</ele>
        <time>2023-02-25T14:22:04.038Z</time>
      </trkpt>
      <trkpt lat="45.19918" lon="6.40926">
        <ele>1910</ele>
        <time>2023-02-25T14:22:08.992Z</time>
      </trkpt>
      <trkpt lat="45.19925" lon="6.40953">
        <ele>1908</ele>
        <time>2023-02-25T14:22:14.966Z</time>
      </trkpt>
      <trkpt lat="45.19928" lon="6.40977">
        <ele>1907</ele>
        <time>2023-02-25T14:22:18.987Z</time>
      </trkpt>
      <trkpt lat="45.19924" lon="6.40992">
        <ele>1904</ele>
        <time>2023-02-25T14:22:26.987Z</time>
      </trkpt>
      <trkpt lat="45.19922" lon="6.41005">
        <ele>1899</ele>
        <time>2023-02-25T14:22:41.024Z</time>
      </trkpt>
      <trkpt lat="45.19921" lon="6.41012">
        <ele>1893</ele>
        <time>2023-02-25T14:22:59.060Z</time>
      </trkpt>
      <trkpt lat="45.19921" lon="6.41012">
        <ele>1893</ele>
        <time>2023-02-25T14:23:34.063Z</time>
      </trkpt>
      <trkpt lat="45.19917" lon="6.41047">
        <ele>1885</ele>
        <time>2023-02-25T14:23:35.058Z</time>
      </trkpt>
      <trkpt lat="45.19917" lon="6.41061">
        <ele>1881</ele>
        <time>2023-02-25T14:23:46.034Z</time>
      </trkpt>
      <trkpt lat="45.19916" lon="6.41075">
        <ele>1878</ele>
        <time>2023-02-25T14:23:54.055Z</time>
      </trkpt>
      <trkpt lat="45.19917" lon="6.41089">
        <ele>1875</ele>
        <time>2023-02-25T14:24:02.025Z</time>
      </trkpt>
      <trkpt lat="45.19924" lon="6.41104">
        <ele>1873</ele>
        <time>2023-02-25T14:24:05.087Z</time>
      </trkpt>
      <trkpt lat="45.19933" lon="6.41113">
        <ele>1872</ele>
        <time>2023-02-25T14:24:07.043Z</time>
      </trkpt>
      <trkpt lat="45.19944" lon="6.4112">
        <ele>1871</ele>
        <time>2023-02-25T14:24:09.055Z</time>
      </trkpt>
      <trkpt lat="45.19963" lon="6.41133">
        <ele>1869</ele>
        <time>2023-02-25T14:24:13.067Z</time>
      </trkpt>
      <trkpt lat="45.19984" lon="6.41162">
        <ele>1865</ele>
        <time>2023-02-25T14:24:18.056Z</time>
      </trkpt>
      <trkpt lat="45.20003" lon="6.41158">
        <ele>1860</ele>
        <time>2023-02-25T14:24:25.967Z</time>
      </trkpt>
      <trkpt lat="45.20011" lon="6.4115">
        <ele>1855</ele>
        <time>2023-02-25T14:24:34.011Z</time>
      </trkpt>
      <trkpt lat="45.20018" lon="6.4114">
        <ele>1851</ele>
        <time>2023-02-25T14:24:43.043Z</time>
      </trkpt>
      <trkpt lat="45.20025" lon="6.41131">
        <ele>1849</ele>
        <time>2023-02-25T14:24:45.972Z</time>
      </trkpt>
      <trkpt lat="45.20034" lon="6.41119">
        <ele>1848</ele>
        <time>2023-02-25T14:24:49.064Z</time>
      </trkpt>
      <trkpt lat="45.20045" lon="6.41109">
        <ele>1847</ele>
        <time>2023-02-25T14:24:52.065Z</time>
      </trkpt>
      <trkpt lat="45.20064" lon="6.411">
        <ele>1847</ele>
        <time>2023-02-25T14:24:56.069Z</time>
      </trkpt>
      <trkpt lat="45.20082" lon="6.41099">
        <ele>1846</ele>
        <time>2023-02-25T14:25:00.010Z</time>
      </trkpt>
      <trkpt lat="45.20101" lon="6.41101">
        <ele>1845</ele>
        <time>2023-02-25T14:25:03.986Z</time>
      </trkpt>
      <trkpt lat="45.20122" lon="6.4111">
        <ele>1845</ele>
        <time>2023-02-25T14:25:08.007Z</time>
      </trkpt>
      <trkpt lat="45.20148" lon="6.41115">
        <ele>1844</ele>
        <time>2023-02-25T14:25:13.015Z</time>
      </trkpt>
      <trkpt lat="45.20171" lon="6.41118">
        <ele>1843</ele>
        <time>2023-02-25T14:25:18.012Z</time>
      </trkpt>
      <trkpt lat="45.2019" lon="6.41122">
        <ele>1842</ele>
        <time>2023-02-25T14:25:23.067Z</time>
      </trkpt>
      <trkpt lat="45.20206" lon="6.41128">
        <ele>1841</ele>
        <time>2023-02-25T14:25:28.049Z</time>
      </trkpt>
      <trkpt lat="45.20221" lon="6.41139">
        <ele>1840</ele>
        <time>2023-02-25T14:25:32.046Z</time>
      </trkpt>
      <trkpt lat="45.20234" lon="6.41152">
        <ele>1840</ele>
        <time>2023-02-25T14:25:35.096Z</time>
      </trkpt>
      <trkpt lat="45.20252" lon="6.41168">
        <ele>1839</ele>
        <time>2023-02-25T14:25:39.040Z</time>
      </trkpt>
      <trkpt lat="45.20275" lon="6.4118">
        <ele>1838</ele>
        <time>2023-02-25T14:25:43.069Z</time>
      </trkpt>
      <trkpt lat="45.20299" lon="6.41187">
        <ele>1837</ele>
        <time>2023-02-25T14:25:47.090Z</time>
      </trkpt>
      <trkpt lat="45.20328" lon="6.41206">
        <ele>1836</ele>
        <time>2023-02-25T14:25:52.084Z</time>
      </trkpt>
      <trkpt lat="45.20349" lon="6.41238">
        <ele>1835</ele>
        <time>2023-02-25T14:25:56.076Z</time>
      </trkpt>
      <trkpt lat="45.20377" lon="6.41273">
        <ele>1834</ele>
        <time>2023-02-25T14:26:00.098Z</time>
      </trkpt>
      <trkpt lat="45.20412" lon="6.41305">
        <ele>1833</ele>
        <time>2023-02-25T14:26:04.035Z</time>
      </trkpt>
      <trkpt lat="45.20457" lon="6.41337">
        <ele>1830</ele>
        <time>2023-02-25T14:26:09.026Z</time>
      </trkpt>
      <trkpt lat="45.20508" lon="6.41362">
        <ele>1826</ele>
        <time>2023-02-25T14:26:15.004Z</time>
      </trkpt>
      <trkpt lat="45.20553" lon="6.41377">
        <ele>1822</ele>
        <time>2023-02-25T14:26:21.019Z</time>
      </trkpt>
      <trkpt lat="45.20591" lon="6.41402">
        <ele>1819</ele>
        <time>2023-02-25T14:26:26.049Z</time>
      </trkpt>
      <trkpt lat="45.20635" lon="6.41414">
        <ele>1814</ele>
        <time>2023-02-25T14:26:31.048Z</time>
      </trkpt>
      <trkpt lat="45.20679" lon="6.41428">
        <ele>1810</ele>
        <time>2023-02-25T14:26:36.053Z</time>
      </trkpt>
      <trkpt lat="45.20713" lon="6.41466">
        <ele>1803</ele>
        <time>2023-02-25T14:26:42.027Z</time>
      </trkpt>
      <trkpt lat="45.20735" lon="6.41497">
        <ele>1797</ele>
        <time>2023-02-25T14:26:48.025Z</time>
      </trkpt>
      <trkpt lat="45.2075" lon="6.41519">
        <ele>1792</ele>
        <time>2023-02-25T14:26:54.030Z</time>
      </trkpt>
      <trkpt lat="45.20758" lon="6.41532">
        <ele>1788</ele>
        <time>2023-02-25T14:27:00.043Z</time>
      </trkpt>
      <trkpt lat="45.20763" lon="6.41544">
        <ele>1784</ele>
        <time>2023-02-25T14:27:07.026Z</time>
      </trkpt>
      <trkpt lat="45.20769" lon="6.41556">
        <ele>1781</ele>
        <time>2023-02-25T14:27:13.037Z</time>
      </trkpt>
      <trkpt lat="45.20774" lon="6.41568">
        <ele>1780</ele>
        <time>2023-02-25T14:27:17.982Z</time>
      </trkpt>
      <trkpt lat="45.20776" lon="6.41583">
        <ele>1778</ele>
        <time>2023-02-25T14:27:24.059Z</time>
      </trkpt>
      <trkpt lat="45.20777" lon="6.41591">
        <ele>1777</ele>
        <time>2023-02-25T14:27:39.046Z</time>
      </trkpt>
      <trkpt lat="45.20777" lon="6.41591">
        <ele>1777</ele>
        <time>2023-02-25T14:27:57.054Z</time>
      </trkpt>
      <trkpt lat="45.20766" lon="6.41623">
        <ele>1775</ele>
        <time>2023-02-25T14:27:58.027Z</time>
      </trkpt>
      <trkpt lat="45.20759" lon="6.41634">
        <ele>1775</ele>
        <time>2023-02-25T14:28:00.054Z</time>
      </trkpt>
      <trkpt lat="45.2075" lon="6.41644">
        <ele>1774</ele>
        <time>2023-02-25T14:28:02.062Z</time>
      </trkpt>
      <trkpt lat="45.20737" lon="6.41659">
        <ele>1773</ele>
        <time>2023-02-25T14:28:04.999Z</time>
      </trkpt>
      <trkpt lat="45.20718" lon="6.4168">
        <ele>1771</ele>
        <time>2023-02-25T14:28:11.076Z</time>
      </trkpt>
      <trkpt lat="45.20703" lon="6.41704">
        <ele>1768</ele>
        <time>2023-02-25T14:28:16.072Z</time>
      </trkpt>
      <trkpt lat="45.20688" lon="6.41726">
        <ele>1764</ele>
        <time>2023-02-25T14:28:21.051Z</time>
      </trkpt>
      <trkpt lat="45.20672" lon="6.41742">
        <ele>1760</ele>
        <time>2023-02-25T14:28:26.013Z</time>
      </trkpt>
      <trkpt lat="45.20656" lon="6.41759">
        <ele>1754</ele>
        <time>2023-02-25T14:28:31.047Z</time>
      </trkpt>
      <trkpt lat="45.20645" lon="6.41783">
        <ele>1748</ele>
        <time>2023-02-25T14:28:36.028Z</time>
      </trkpt>
      <trkpt lat="45.20633" lon="6.41802">
        <ele>1741</ele>
        <time>2023-02-25T14:28:41.050Z</time>
      </trkpt>
      <trkpt lat="45.20624" lon="6.41825">
        <ele>1735</ele>
        <time>2023-02-25T14:28:44.997Z</time>
      </trkpt>
      <trkpt lat="45.20608" lon="6.41845">
        <ele>1728</ele>
        <time>2023-02-25T14:28:49.053Z</time>
      </trkpt>
      <trkpt lat="45.20595" lon="6.41877">
        <ele>1720</ele>
        <time>2023-02-25T14:28:54.042Z</time>
      </trkpt>
      <trkpt lat="45.20575" lon="6.41898">
        <ele>1711</ele>
        <time>2023-02-25T14:28:59.013Z</time>
      </trkpt>
      <trkpt lat="45.20568" lon="6.41892">
        <ele>1682</ele>
        <time>2023-02-25T14:29:19.040Z</time>
      </trkpt>
      <trkpt lat="45.20565" lon="6.4189">
        <ele>1669</ele>
        <time>2023-02-25T14:29:33.029Z</time>
      </trkpt>
      <trkpt lat="45.20565" lon="6.4189">
        <ele>1669</ele>
        <time>2023-02-25T14:31:03.229Z</time>
      </trkpt>
    </trkseg>
  </trk>
</gpx>